PORTS® Data Listing: 9075099 De Tour Village, MI

CO-OPS RAW PORTS DATA

************************      PRELIMINARY DATA      ************************** 

     THIS RAW DATA HAS NOT BEEN SUBJECT TO THE NATIONAL OCEAN SERVICE'S        
     QUALITY CONTROL OR QUALITY ASSURANCE PROCEDURES AND DOES NOT MEET         
     THE CRITERIA AND STANDARDS OF OFFICIAL NATIONAL OCEAN SERVICE             
     DATA.  IT IS RELEASED FOR LIMITED PUBLIC USE AS PRELIMINARY DATA TO       
     BE USED ONLY WITH APPROPRIATE CAUTION.                                    

************************      PRELIMINARY DATA      ************************** 


       CD   -   Calendar date
       T    -   Time
       TZ   -   Timezone
       SW   -   Observed secondary water level (inches IGLD 1985)
       PW   -   Observed primary water level (inches IGLD 1985)
       WS   -   Wind speed (knots)
       WD   -   Wind direction (degrees true)
       WG   -   Wind gust (knots)
       AT   -   Air temperature (degrees farenheit)
       WT   -   Water temperature (degrees farenheit)
       AP   -   Air pressure (millibars)
       SA   -   Salinty (PSU - Practical Salinity Units)
       SG   -   Specific gravity
       RH   -   Relative humidity
       AG   -   Air gap (feet)
       VI   -   Visibility (nautical miles)

       ** NOTE **
       A variable that has its data fields filled with "9"s, indicates that
       data was not collected for that sample period.
       **********


STATION NAME: De Tour Village (9075099)
****************************************************************************************************
    CD       T    TZ    SW     PW    WS   WD   WG    AT    WT    AP    SA    SG     RH    AG   VI
****************************************************************************************************
2019/10/14 12:12 EDT   50.87  50.91    7  288   14  44.8  55.9 1011.3 -9.9 -9.999  71.9 -99.99 -9.99
2019/10/14 12:18 EDT   50.67  50.71    9  266   17  44.4  55.9 1011.4 -9.9 -9.999  69.7 -99.99 -9.99
2019/10/14 12:24 EDT   50.71  50.75   10  268   16  44.8  55.9 1011.4 -9.9 -9.999  68.0 -99.99 -9.99
2019/10/14 12:30 EDT   50.59  50.59    9  260   17  44.8  55.9 1011.4 -9.9 -9.999  65.5 -99.99 -9.99
2019/10/14 12:36 EDT   50.39  50.43   11  259   19  44.8  55.9 1011.4 -9.9 -9.999  63.2 -99.99 -9.99
2019/10/14 12:42 EDT   50.08  50.12   11  275   17  45.1  55.9 1011.4 -9.9 -9.999  61.6 -99.99 -9.99
2019/10/14 12:48 EDT   49.84  49.88    9  282   19  45.3  55.9 1011.4 -9.9 -9.999  61.4 -99.99 -9.99
2019/10/14 12:54 EDT   49.72  49.76    8  281   17  45.9  55.9 1011.4 -9.9 -9.999  62.0 -99.99 -9.99
2019/10/14 13:00 EDT   49.53  49.57    8  282   17  45.5  55.9 1011.4 -9.9 -9.999  61.3 -99.99 -9.99
2019/10/14 13:06 EDT   49.76  49.80    7  278   11  46.0  55.9 1011.3 -9.9 -9.999  61.9 -99.99 -9.99
2019/10/14 13:12 EDT   49.80  49.84   11  266   17  45.9  55.9 1011.3 -9.9 -9.999  57.2 -99.99 -9.99
2019/10/14 13:18 EDT   49.76  49.80    8  269   17  46.2  55.9 1011.3 -9.9 -9.999  59.7 -99.99 -9.99
2019/10/14 13:24 EDT   49.72  49.76    9  282   13  45.9  55.9 1011.3 -9.9 -9.999  57.9 -99.99 -9.99
2019/10/14 13:30 EDT   49.53  49.57    8  283   15  46.2  55.9 1011.3 -9.9 -9.999  56.2 -99.99 -9.99
2019/10/14 13:36 EDT   49.33  49.37    8  266   11  46.8  55.9 1011.4 -9.9 -9.999  57.3 -99.99 -9.99
2019/10/14 13:42 EDT   49.41  49.45   11  256   18  46.2  55.9 1011.4 -9.9 -9.999  54.8 -99.99 -9.99
2019/10/14 13:48 EDT   49.25  49.29    6  259   17  47.1  55.9 1011.4 -9.9 -9.999  57.4 -99.99 -9.99
2019/10/14 13:54 EDT   49.06  49.13    8  287   17  46.9  55.9 1011.4 -9.9 -9.999  57.6 -99.99 -9.99
2019/10/14 14:00 EDT   48.94  48.98   11  270   16  46.6  55.9 1011.4 -9.9 -9.999  56.4 -99.99 -9.99
2019/10/14 14:06 EDT   48.90  48.94   10  265   15  46.9  55.9 1011.5 -9.9 -9.999  56.6 -99.99 -9.99
2019/10/14 14:12 EDT   48.86  48.90    8  268   14  47.7  55.9 1011.5 -9.9 -9.999  56.9 -99.99 -9.99
2019/10/14 14:18 EDT   48.98  49.02    6  282   13  48.0  55.9 1011.5 -9.9 -9.999  55.6 -99.99 -9.99
2019/10/14 14:24 EDT   49.02  49.06   11  263   17  46.9  55.9 1011.6 -9.9 -9.999  56.6 -99.99 -9.99
2019/10/14 14:30 EDT   48.86  48.90   12  254   17  46.9  55.9 1011.5 -9.9 -9.999  57.4 -99.99 -9.99
2019/10/14 14:36 EDT   48.78  48.82   12  256   18  47.1  55.9 1011.5 -9.9 -9.999  57.3 -99.99 -9.99
2019/10/14 14:42 EDT   48.82  48.86    9  251   20  47.5  55.9 1011.5 -9.9 -9.999  58.0 -99.99 -9.99
2019/10/14 14:48 EDT   48.94  48.98   12  257   19  47.3  55.9 1011.5 -9.9 -9.999  55.1 -99.99 -9.99
2019/10/14 14:54 EDT   48.86  48.90   11  270   21  47.3  55.9 1011.6 -9.9 -9.999  58.8 -99.99 -9.99
2019/10/14 15:00 EDT   48.90  48.94   11  271   16  47.8  55.9 1011.7 -9.9 -9.999  58.1 -99.99 -9.99
2019/10/14 15:06 EDT   48.90  48.94   10  269   15  46.9  55.9 1011.8 -9.9 -9.999  58.6 -99.99 -9.99
2019/10/14 15:12 EDT   48.94  48.98    7  274   15  47.8  55.9 1011.7 -9.9 -9.999  58.5 -99.99 -9.99
2019/10/14 15:18 EDT   49.21  49.25   10  265   15  47.5  55.9 1011.9 -9.9 -9.999  57.3 -99.99 -9.99
2019/10/14 15:24 EDT   49.13  49.17    9  270   16  46.6  55.9 1011.9 -9.9 -9.999  57.4 -99.99 -9.99
2019/10/14 15:30 EDT   49.21  49.21    7  261   18  46.9  55.9 1011.8 -9.9 -9.999  58.5 -99.99 -9.99
2019/10/14 15:36 EDT   49.25  49.29   11  270   18  47.8  55.9 1011.9 -9.9 -9.999  56.4 -99.99 -9.99
2019/10/14 15:42 EDT   49.33  49.37   14  263   22  47.3  55.9 1011.9 -9.9 -9.999  57.8 -99.99 -9.99
2019/10/14 15:48 EDT   49.37  49.41    9  268   18  48.4  55.9 1011.9 -9.9 -9.999  56.1 -99.99 -9.99
2019/10/14 15:54 EDT   49.53  49.57   11  257   16  47.5  55.9 1011.9 -9.9 -9.999  58.3 -99.99 -9.99
2019/10/14 16:00 EDT   49.53  49.57   12  259   19  47.8  55.9 1012.0 -9.9 -9.999  54.6 -99.99 -9.99
2019/10/14 16:06 EDT   49.69  49.72    8  254   19  48.0  55.9 1012.0 -9.9 -9.999  55.0 -99.99 -9.99
2019/10/14 16:12 EDT   49.80  49.84   10  253   19  48.0  55.9 1012.1 -9.9 -9.999  54.4 -99.99 -9.99
2019/10/14 16:18 EDT   50.12  50.16   10  256   18  48.0  55.9 1012.1 -9.9 -9.999  54.6 -99.99 -9.99
2019/10/14 16:24 EDT   50.24  50.28   13  269   22  47.5  55.9 1012.3 -9.9 -9.999  55.5 -99.99 -9.99
2019/10/14 16:30 EDT   50.43  50.43    9  267   19  48.0  55.9 1012.3 -9.9 -9.999  56.6 -99.99 -9.99
2019/10/14 16:36 EDT   50.59  50.63    8  275   16  48.7  55.9 1012.3 -9.9 -9.999  54.4 -99.99 -9.99
2019/10/14 16:42 EDT   50.79  50.83   10  265   17  48.6  55.9 1012.5 -9.9 -9.999  53.3 -99.99 -9.99
2019/10/14 16:48 EDT   50.51  50.55    8  273   20  48.7  55.9 1012.5 -9.9 -9.999  55.5 -99.99 -9.99
2019/10/14 16:54 EDT   50.43  50.43   15  247   21  48.2  55.9 1012.5 -9.9 -9.999  53.2 -99.99 -9.99
2019/10/14 17:00 EDT   50.39  50.39   10  282   15  47.1  55.9 1012.7 -9.9 -9.999  55.4 -99.99 -9.99
2019/10/14 17:06 EDT   50.71  50.75    6  267   16  47.1  55.9 1012.7 -9.9 -9.999  56.3 -99.99 -9.99
2019/10/14 17:12 EDT   51.06  51.06    5  285   13  47.1  55.9 1012.8 -9.9 -9.999  57.8 -99.99 -9.99
2019/10/14 17:18 EDT   50.87  50.91    6  276   10  47.1  55.9 1012.8 -9.9 -9.999  59.3 -99.99 -9.99
2019/10/14 17:24 EDT   50.87  50.91    8  267   14  47.1  55.9 1012.9 -9.9 -9.999  59.1 -99.99 -9.99
2019/10/14 17:30 EDT   50.67  50.71    7  261   13  47.5  55.9 1012.9 -9.9 -9.999  58.9 -99.99 -9.99
2019/10/14 17:36 EDT   50.98  50.98    9  256   16  46.9  55.9 1012.9 -9.9 -9.999  59.6 -99.99 -9.99
2019/10/14 17:42 EDT   51.14  51.18    8  264   15  46.4  55.9 1013.0 -9.9 -9.999  61.2 -99.99 -9.99
2019/10/14 17:48 EDT   51.26  51.30   10  273   13  46.0  55.9 1013.1 -9.9 -9.999  62.6 -99.99 -9.99
2019/10/14 17:54 EDT   51.30  51.30    7  275   13  45.9  55.9 1013.1 -9.9 -9.999  64.3 -99.99 -9.99
2019/10/14 18:00 EDT   51.22  51.26    6  275   11  45.7  55.9 1013.2 -9.9 -9.999  65.0 -99.99 -9.99
2019/10/14 18:06 EDT   51.30  51.34    7  269   13  45.5  55.9 1013.2 -9.9 -9.999  65.6 -99.99 -9.99
2019/10/14 18:12 EDT   51.34  51.34    7  268   12  45.5  55.9 1013.2 -9.9 -9.999  65.8 -99.99 -9.99
2019/10/14 18:18 EDT   51.38  51.42    4  276   11  45.3  55.9 1013.3 -9.9 -9.999  67.6 -99.99 -9.99
2019/10/14 18:24 EDT   51.46  51.46    4  275    9  45.3  55.9 1013.3 -9.9 -9.999  68.4 -99.99 -9.99
2019/10/14 18:30 EDT   51.38  51.38    5  275   11  45.3  55.9 1013.4 -9.9 -9.999  68.0 -99.99 -9.99
2019/10/14 18:36 EDT   51.38  51.42    5  276    9  45.5  55.9 1013.3 -9.9 -9.999  68.3 -99.99 -9.99
2019/10/14 18:42 EDT   51.54  51.57    6  274   10  45.5  55.9 1013.4 -9.9 -9.999  67.9 -99.99 -9.99
2019/10/14 18:48 EDT   51.34  51.38    6  283    9  45.3  55.9 1013.4 -9.9 -9.999  68.7 -99.99 -9.99
2019/10/14 18:54 EDT   51.14  51.18    6  276   11  45.1  55.9 1013.5 -9.9 -9.999  69.7 -99.99 -9.99
2019/10/14 19:00 EDT   51.26  51.26    4  281   10  45.0  55.9 1013.5 -9.9 -9.999  71.0 -99.99 -9.99
2019/10/14 19:06 EDT   51.34  51.38    6  280   10  44.8  55.9 1013.5 -9.9 -9.999  71.8 -99.99 -9.99
2019/10/14 19:12 EDT   51.14  51.18    4  281    8  44.2  55.9 1013.6 -9.9 -9.999  73.7 -99.99 -9.99
2019/10/14 19:18 EDT   51.18  51.18    4  284    6  44.1  55.9 1013.7 -9.9 -9.999  75.1 -99.99 -9.99
2019/10/14 19:24 EDT   51.34  51.38    2  287    5  43.7  55.9 1013.8 -9.9 -9.999  76.4 -99.99 -9.99
2019/10/14 19:30 EDT   51.46  51.50    2  292    4  43.5  55.9 1013.9 -9.9 -9.999  77.7 -99.99 -9.99
2019/10/14 19:36 EDT   51.42  51.46    3  312    4  43.3  55.9 1013.9 -9.9 -9.999  78.9 -99.99 -9.99
2019/10/14 19:42 EDT   51.22  51.26    3  303    4  42.8  55.9 1013.9 -9.9 -9.999  79.6 -99.99 -9.99
2019/10/14 19:48 EDT   51.22  51.26    3  281    5  42.8  55.9 1014.1 -9.9 -9.999  79.2 -99.99 -9.99
2019/10/14 19:54 EDT   51.22  51.26    3  278    4  42.3  55.9 1014.2 -9.9 -9.999  80.5 -99.99 -9.99
2019/10/14 20:00 EDT   51.06  51.06    3  287    4  41.9  55.9 1014.2 -9.9 -9.999  81.3 -99.99 -9.99
2019/10/14 20:06 EDT   51.10  51.10    3  297    5  41.9  55.9 1014.2 -9.9 -9.999  80.3 -99.99 -9.99
2019/10/14 20:12 EDT   51.30  51.34    4  295    5  41.7  55.9 1014.2 -9.9 -9.999  78.6 -99.99 -9.99
2019/10/14 20:18 EDT   51.18  51.22    3  294    4  41.5  55.9 1014.3 -9.9 -9.999  78.7 -99.99 -9.99
2019/10/14 20:24 EDT   51.10  51.14    3  286    5  41.7  55.9 1014.3 -9.9 -9.999  78.1 -99.99 -9.99
2019/10/14 20:30 EDT   50.91  50.94    3  273    4  41.7  55.9 1014.4 -9.9 -9.999  78.4 -99.99 -9.99
2019/10/14 20:36 EDT   50.71  50.75    4  264    4  41.5  55.9 1014.4 -9.9 -9.999  79.1 -99.99 -9.99
2019/10/14 20:42 EDT   50.75  50.79    3  258    4  41.4  55.9 1014.4 -9.9 -9.999  80.3 -99.99 -9.99
2019/10/14 20:48 EDT   50.63  50.67    2  260    4  41.0  55.9 1014.4 -9.9 -9.999  82.0 -99.99 -9.99
2019/10/14 20:54 EDT   50.63  50.67    3  254    4  40.6  55.9 1014.6 -9.9 -9.999  82.9 -99.99 -9.99
2019/10/14 21:00 EDT   50.67  50.67    2  250    4  40.5  55.9 1014.7 -9.9 -9.999  84.2 -99.99 -9.99
2019/10/14 21:06 EDT   50.47  50.51    2  259    2  40.6  55.9 1014.7 -9.9 -9.999  83.7 -99.99 -9.99
2019/10/14 21:12 EDT   50.35  50.39    1  275    2  40.3  55.9 1014.8 -9.9 -9.999  85.2 -99.99 -9.99
2019/10/14 21:18 EDT   50.31  50.35    2  250    2  40.1  55.9 1014.8 -9.9 -9.999  85.9 -99.99 -9.99
2019/10/14 21:24 EDT   50.20  50.20    3  267    3  39.9  55.9 1014.9 -9.9 -9.999  86.4 -99.99 -9.99
2019/10/14 21:30 EDT   50.16  50.20    4  271    4  39.9  55.9 1015.0 -9.9 -9.999  84.8 -99.99 -9.99
2019/10/14 21:36 EDT   50.00  50.00    4  280    5  40.1  55.9 1015.0 -9.9 -9.999  82.4 -99.99 -9.99
2019/10/14 21:42 EDT   50.24  50.24    4  271    5  40.5  55.9 1014.9 -9.9 -9.999  79.1 -99.99 -9.99
2019/10/14 21:48 EDT   50.12  50.16    3  271    4  40.5  55.9 1014.9 -9.9 -9.999  78.2 -99.99 -9.99
2019/10/14 21:54 EDT   49.92  49.96    3  276    4  40.3  55.9 1015.0 -9.9 -9.999  78.6 -99.99 -9.99
2019/10/14 22:00 EDT   49.88  49.92    3  275    4  40.1  55.9 1015.0 -9.9 -9.999  78.6 -99.99 -9.99
2019/10/14 22:06 EDT   49.88  49.88    3  276    4  39.9  55.9 1015.0 -9.9 -9.999  78.6 -99.99 -9.99
2019/10/14 22:12 EDT   49.76  49.80    3  270    4  39.9  55.9 1015.0 -9.9 -9.999  78.0 -99.99 -9.99
2019/10/14 22:18 EDT   49.69  49.72    2  257    4  39.9  55.9 1015.0 -9.9 -9.999  78.1 -99.99 -9.99
2019/10/14 22:24 EDT   49.69  49.72    3  246    4  40.1  55.9 1015.0 -9.9 -9.999  76.8 -99.99 -9.99
2019/10/14 22:30 EDT   49.76  49.80    4  249    5  40.3  55.9 1015.1 -9.9 -9.999  75.9 -99.99 -9.99
2019/10/14 22:36 EDT   49.88  49.92    3  258    4  40.5  55.9 1015.1 -9.9 -9.999  75.1 -99.99 -9.99
2019/10/14 22:42 EDT   49.96  50.00    3  257    4  40.1  55.9 1015.1 -9.9 -9.999  75.5 -99.99 -9.99
2019/10/14 22:48 EDT   49.72  49.76    3  252    4  40.5  55.9 1015.1 -9.9 -9.999  74.6 -99.99 -9.99
2019/10/14 22:54 EDT   49.49  49.53    3  252    4  40.6  55.9 1015.1 -9.9 -9.999  73.6 -99.99 -9.99
2019/10/14 23:00 EDT   49.53  49.57    3  251    4  41.0  55.9 1015.1 -9.9 -9.999  72.7 -99.99 -9.99
2019/10/14 23:06 EDT   49.72  49.76    3  250    4  41.2  55.9 1015.1 -9.9 -9.999  71.7 -99.99 -9.99
2019/10/14 23:12 EDT   49.72  49.76    3  246    4  41.7  55.9 1015.1 -9.9 -9.999  70.4 -99.99 -9.99
2019/10/14 23:18 EDT   49.76  49.80    3  264    4  41.7  55.9 1015.2 -9.9 -9.999  69.6 -99.99 -9.99
2019/10/14 23:24 EDT   49.96  50.00    4  208    5  42.3  55.9 1015.3 -9.9 -9.999  69.0 -99.99 -9.99
2019/10/14 23:30 EDT   50.00  50.04    4  225    6  43.2  55.9 1015.3 -9.9 -9.999  66.5 -99.99 -9.99
2019/10/14 23:36 EDT   49.92  49.96    5  224    6  43.7  55.9 1015.2 -9.9 -9.999  63.9 -99.99 -9.99
2019/10/14 23:42 EDT   49.80  49.84    2  252    6  43.3  55.9 1015.2 -9.9 -9.999  65.5 -99.99 -9.99
2019/10/14 23:48 EDT   49.65  49.69    4  241    5  42.8  55.9 1015.3 -9.9 -9.999  66.9 -99.99 -9.99
2019/10/14 23:54 EDT   49.69  49.72    4  246    6  43.5  55.9 1015.3 -9.9 -9.999  64.3 -99.99 -9.99
2019/10/15 00:00 EDT   49.69  49.72    3  255    5  42.8  55.9 1015.4 -9.9 -9.999  67.1 -99.99 -9.99
2019/10/15 00:06 EDT   49.76  49.80    3  260    4  42.6  55.9 1015.4 -9.9 -9.999  67.2 -99.99 -9.99
2019/10/15 00:12 EDT   49.76  49.80    3  266    4  42.3  55.9 1015.4 -9.9 -9.999  68.6 -99.99 -9.99
2019/10/15 00:18 EDT   49.80  49.84    3  267    4  42.4  55.9 1015.4 -9.9 -9.999  67.2 -99.99 -9.99
2019/10/15 00:24 EDT   49.84  49.88    3  266    4  42.8  55.9 1015.4 -9.9 -9.999  67.6 -99.99 -9.99
2019/10/15 00:30 EDT   49.88  49.92    3  253    5  43.0  55.9 1015.4 -9.9 -9.999  69.1 -99.99 -9.99
2019/10/15 00:36 EDT   49.88  49.92    2  256    3  43.2  55.9 1015.4 -9.9 -9.999  71.1 -99.99 -9.99
2019/10/15 00:42 EDT   49.88  49.92    2  235    4  43.3  55.9 1015.5 -9.9 -9.999  74.3 -99.99 -9.99
2019/10/15 00:48 EDT   50.04  50.08    4  247    6  44.1  55.9 1015.5 -9.9 -9.999  78.8 -99.99 -9.99
2019/10/15 00:54 EDT   50.00  50.04    4  228    7  44.6  55.9 1015.5 -9.9 -9.999  83.6 -99.99 -9.99
2019/10/15 01:00 EDT   50.12  50.16    4  235    8  45.1  55.9 1015.5 -9.9 -9.999  84.6 -99.99 -9.99
2019/10/15 01:06 EDT   50.16  50.20    4  238    8  45.3  55.9 1015.5 -9.9 -9.999  85.0 -99.99 -9.99
2019/10/15 01:12 EDT   50.00  50.04    5  226   10  45.5  55.9 1015.4 -9.9 -9.999  84.9 -99.99 -9.99
2019/10/15 01:18 EDT   49.96  50.00    5  231    9  45.7  55.9 1015.5 -9.9 -9.999  84.9 -99.99 -9.99
2019/10/15 01:24 EDT   50.04  50.04    5  232    8  45.9  55.9 1015.5 -9.9 -9.999  83.4 -99.99 -9.99
2019/10/15 01:30 EDT   49.96  50.00    6  239   10  45.9  55.9 1015.4 -9.9 -9.999  83.8 -99.99 -9.99
2019/10/15 01:36 EDT   49.92  49.96    5  244    9  45.7  55.9 1015.5 -9.9 -9.999  84.3 -99.99 -9.99
2019/10/15 01:42 EDT   49.76  49.80    4  232    7  45.7  55.9 1015.4 -9.9 -9.999  85.1 -99.99 -9.99
2019/10/15 01:48 EDT   49.80  49.84    7  221   11  45.7  55.9 1015.4 -9.9 -9.999  85.0 -99.99 -9.99
2019/10/15 01:54 EDT   49.88  49.92    7  243   11  45.9  55.9 1015.5 -9.9 -9.999  84.5 -99.99 -9.99
2019/10/15 02:00 EDT   49.72  49.76    4  234   11  45.3  55.9 1015.5 -9.9 -9.999  87.5 -99.99 -9.99
2019/10/15 02:06 EDT   49.69  49.72    5  241   10  45.3  55.9 1015.5 -9.9 -9.999  89.1 -99.99 -9.99
2019/10/15 02:12 EDT   49.69  49.69    6  235   10  45.5  55.9 1015.5 -9.9 -9.999  89.0 -99.99 -9.99
2019/10/15 02:18 EDT   49.53  49.57    7  243    9  45.5  55.9 1015.5 -9.9 -9.999  88.2 -99.99 -9.99
2019/10/15 02:24 EDT   49.57  49.61    5  240    8  45.7  55.9 1015.4 -9.9 -9.999  87.7 -99.99 -9.99
2019/10/15 02:30 EDT   49.80  49.84    7  251    9  45.7  55.9 1015.5 -9.9 -9.999  87.6 -99.99 -9.99
2019/10/15 02:36 EDT   49.84  49.88    5  243    8  45.7  55.9 1015.5 -9.9 -9.999  87.9 -99.99 -9.99
2019/10/15 02:42 EDT   49.65  49.69    3  242    8  45.3  55.9 1015.6 -9.9 -9.999  90.4 -99.99 -9.99
2019/10/15 02:48 EDT   49.57  49.61    6  243    9  45.3  55.9 1015.6 -9.9 -9.999  89.3 -99.99 -9.99
2019/10/15 02:54 EDT   49.45  49.49    6  250    9  45.5  55.9 1015.6 -9.9 -9.999  87.4 -99.99 -9.99
2019/10/15 03:00 EDT   49.49  49.53    7  252   11  45.5  55.9 1015.6 -9.9 -9.999  88.9 -99.99 -9.99
2019/10/15 03:06 EDT   49.57  49.61    6  256   10  45.3  55.9 1015.5 -9.9 -9.999  89.4 -99.99 -9.99
2019/10/15 03:12 EDT   49.65  49.65    4  244   10  45.3  55.9 1015.5 -9.9 -9.999  90.1 -99.99 -9.99
2019/10/15 03:18 EDT   49.61  49.65    4  237    9  45.1  55.9 1015.5 -9.9 -9.999  90.6 -99.99 -9.99
2019/10/15 03:24 EDT   49.61  49.65    5  237    7  45.3  55.9 1015.5 -9.9 -9.999  91.2 -99.99 -9.99
2019/10/15 03:30 EDT   49.69  49.72    4  233    9  45.3  55.9 1015.4 -9.9 -9.999  91.2 -99.99 -9.99
2019/10/15 03:36 EDT   49.61  49.65    5  241    8  45.5  55.9 1015.5 -9.9 -9.999  91.0 -99.99 -9.99
2019/10/15 03:42 EDT   49.69  49.72    5  223   10  45.5  55.9 1015.4 -9.9 -9.999  90.9 -99.99 -9.99
2019/10/15 03:48 EDT   49.72  49.76    4  219    8  45.7  55.9 1015.4 -9.9 -9.999  91.0 -99.99 -9.99
2019/10/15 03:54 EDT   49.72  49.76    5  240    9  45.9  55.9 1015.4 -9.9 -9.999  90.6 -99.99 -9.99
2019/10/15 04:00 EDT   49.76  49.80    4  242    8  45.9  55.9 1015.4 -9.9 -9.999  91.0 -99.99 -9.99
2019/10/15 04:06 EDT   49.88  49.92    3  249    7  45.9  55.9 1015.4 -9.9 -9.999  91.3 -99.99 -9.99
2019/10/15 04:12 EDT   50.08  50.12    5  246    7  46.2  55.9 1015.4 -9.9 -9.999  90.4 -99.99 -9.99
2019/10/15 04:18 EDT   50.16  50.20    4  245    7  46.2  55.8 1015.4 -9.9 -9.999  90.3 -99.99 -9.99
2019/10/15 04:24 EDT   49.96  50.00    3  237    8  46.2  55.9 1015.4 -9.9 -9.999  90.4 -99.99 -9.99
2019/10/15 04:30 EDT   49.92  49.96    3  237    5  46.2  55.8 1015.4 -9.9 -9.999  90.5 -99.99 -9.99
2019/10/15 04:36 EDT   50.24  50.24    4  240    6  46.4  55.8 1015.4 -9.9 -9.999  90.4 -99.99 -9.99
2019/10/15 04:42 EDT   50.24  50.24    7  245   11  46.6  55.8 1015.5 -9.9 -9.999  89.0 -99.99 -9.99
2019/10/15 04:48 EDT   50.39  50.39    4  246    9  46.4  55.8 1015.5 -9.9 -9.999  89.7 -99.99 -9.99
2019/10/15 04:54 EDT   50.43  50.43    4  242   11  46.4  55.8 1015.4 -9.9 -9.999  89.7 -99.99 -9.99
2019/10/15 05:00 EDT   50.31  50.35    4  248    9  46.4  55.8 1015.4 -9.9 -9.999  89.6 -99.99 -9.99
2019/10/15 05:06 EDT   50.31  50.35    6  242    9  46.6  55.8 1015.4 -9.9 -9.999  89.1 -99.99 -9.99
2019/10/15 05:12 EDT   50.55  50.59    4  247    7  46.4  55.8 1015.4 -9.9 -9.999  89.5 -99.99 -9.99
2019/10/15 05:18 EDT   50.67  50.67    3  249    7  46.4  55.8 1015.4 -9.9 -9.999  89.5 -99.99 -9.99
2019/10/15 05:24 EDT   50.91  50.94    3  258    6  46.4  55.8 1015.4 -9.9 -9.999  89.3 -99.99 -9.99
2019/10/15 05:30 EDT   50.91  50.94    3  279    6  46.2  55.8 1015.3 -9.9 -9.999  89.4 -99.99 -9.99
2019/10/15 05:36 EDT   50.87  50.91    3  248    5  46.0  55.8 1015.3 -9.9 -9.999  88.7 -99.99 -9.99
2019/10/15 05:42 EDT   51.22  51.22    2  223    3  46.0  55.8 1015.3 -9.9 -9.999  89.1 -99.99 -9.99
2019/10/15 05:48 EDT   51.22  51.26    2  227    4  45.9  55.8 1015.3 -9.9 -9.999  88.9 -99.99 -9.99
2019/10/15 05:54 EDT   51.14  51.14    2  248    4  45.5  55.8 1015.4 -9.9 -9.999  89.6 -99.99 -9.99
2019/10/15 06:00 EDT   51.14  51.18    2  229    3  45.3  55.8 1015.3 -9.9 -9.999  90.1 -99.99 -9.99
2019/10/15 06:06 EDT   51.26  51.30    1  236    2  45.1  55.8 1015.4 -9.9 -9.999  90.4 -99.99 -9.99
2019/10/15 06:12 EDT   51.38  51.38    2  242    3  44.8  55.8 1015.4 -9.9 -9.999  91.1 -99.99 -9.99
2019/10/15 06:18 EDT   51.42  51.46    2  256    4  44.8  55.8 1015.4 -9.9 -9.999  91.4 -99.99 -9.99
2019/10/15 06:24 EDT   51.42  51.42    2  272    3  44.4  55.8 1015.4 -9.9 -9.999  92.0 -99.99 -9.99
2019/10/15 06:30 EDT   51.50  51.50    2  284    3  44.2  55.8 1015.4 -9.9 -9.999  91.5 -99.99 -9.99
2019/10/15 06:36 EDT   51.57  51.61    3  289    4  44.4  55.8 1015.4 -9.9 -9.999  84.8 -99.99 -9.99
2019/10/15 06:42 EDT   51.54  51.57    2  272    4  44.1  55.8 1015.5 -9.9 -9.999  83.3 -99.99 -9.99
2019/10/15 06:48 EDT   51.89  51.93    2  272    3  43.7  55.8 1015.5 -9.9 -9.999  81.3 -99.99 -9.99
2019/10/15 06:54 EDT   51.65  51.65    3  272    4  43.7  55.8 1015.5 -9.9 -9.999  79.3 -99.99 -9.99
2019/10/15 07:00 EDT   51.69  51.69    3  272    4  43.7  55.8 1015.4 -9.9 -9.999  77.9 -99.99 -9.99
2019/10/15 07:06 EDT   51.61  51.65    3  271    4  43.5  55.8 1015.5 -9.9 -9.999  77.5 -99.99 -9.99
2019/10/15 07:12 EDT   51.61  51.65    2  264    4  43.5  55.8 1015.4 -9.9 -9.999  76.3 -99.99 -9.99
2019/10/15 07:18 EDT   51.89  51.89    3  257    3  43.7  55.8 1015.4 -9.9 -9.999  75.8 -99.99 -9.99
2019/10/15 07:24 EDT   52.05  52.09    3  253    3  43.9  55.8 1015.3 -9.9 -9.999  75.8 -99.99 -9.99
2019/10/15 07:30 EDT   52.05  52.09    3  253    3  43.7  55.8 1015.2 -9.9 -9.999  75.4 -99.99 -9.99
2019/10/15 07:36 EDT   51.85  51.89    3  272    3  43.5  55.8 1015.1 -9.9 -9.999  76.2 -99.99 -9.99
2019/10/15 07:42 EDT   51.93  51.97    3  265    3  43.3  55.8 1015.1 -9.9 -9.999  76.6 -99.99 -9.99
2019/10/15 07:48 EDT   51.97  52.01    3  270    4  43.7  55.8 1015.0 -9.9 -9.999  75.9 -99.99 -9.99
2019/10/15 07:54 EDT   51.81  51.85    2  258    3  43.7  55.8 1014.9 -9.9 -9.999  76.9 -99.99 -9.99
2019/10/15 08:00 EDT   51.93  51.97    3  242    3  43.5  55.8 1014.9 -9.9 -9.999  80.9 -99.99 -9.99
2019/10/15 08:06 EDT   51.89  51.93    3  253    3  43.9  55.8 1014.9 -9.9 -9.999  82.5 -99.99 -9.99
2019/10/15 08:12 EDT   51.89  51.93    3  256    4  43.7  55.8 1014.9 -9.9 -9.999  82.7 -99.99 -9.99
2019/10/15 08:18 EDT   51.85  51.89    3  225    4  43.5  55.8 1014.9 -9.9 -9.999  85.6 -99.99 -9.99
2019/10/15 08:24 EDT   51.81  51.85    4  213    6  44.8  55.8 1014.8 -9.9 -9.999  88.1 -99.99 -9.99
2019/10/15 08:30 EDT   51.73  51.77    3  218    5  44.4  55.8 1015.0 -9.9 -9.999  90.0 -99.99 -9.99
2019/10/15 08:36 EDT   51.73  51.77    4  231    6  45.0  55.8 1015.0 -9.9 -9.999  90.3 -99.99 -9.99
2019/10/15 08:42 EDT   51.54  51.57    3  233    5  44.8  55.8 1014.9 -9.9 -9.999  90.6 -99.99 -9.99
2019/10/15 08:48 EDT   51.42  51.42    3  211    4  45.1  55.8 1014.8 -9.9 -9.999  91.2 -99.99 -9.99
2019/10/15 08:54 EDT   51.50  51.54    3  215    5  45.7  55.8 1014.8 -9.9 -9.999  91.1 -99.99 -9.99
2019/10/15 09:00 EDT   51.50  51.54    3  227    6  46.0  55.8 1015.0 -9.9 -9.999  90.5 -99.99 -9.99
2019/10/15 09:06 EDT   51.26  51.30    3  216    7  46.2  55.8 1015.0 -9.9 -9.999  89.5 -99.99 -9.99
2019/10/15 09:12 EDT   51.14  51.18    4  214    6  46.4  55.8 1014.8 -9.9 -9.999  87.9 -99.99 -9.99
2019/10/15 09:18 EDT   51.06  51.06    4  208    6  46.6  55.8 1014.7 -9.9 -9.999  87.1 -99.99 -9.99
2019/10/15 09:24 EDT   50.87  50.91    4  211    5  46.6  55.8 1014.7 -9.9 -9.999  86.6 -99.99 -9.99
2019/10/15 09:30 EDT   51.02  51.02    3  217    6  46.6  55.8 1014.9 -9.9 -9.999  87.8 -99.99 -9.99
2019/10/15 09:36 EDT   50.94  50.98    4  212    6  46.8  55.8 1014.8 -9.9 -9.999  88.4 -99.99 -9.99
2019/10/15 09:42 EDT   50.91  50.91    2  212    6  46.9  55.8 1014.7 -9.9 -9.999  86.6 -99.99 -9.99
2019/10/15 09:48 EDT   50.51  50.55    4  211    6  47.3  55.8 1014.7 -9.9 -9.999  84.8 -99.99 -9.99
2019/10/15 09:54 EDT   50.43  50.43    2  225    4  47.3  55.8 1014.6 -9.9 -9.999  84.4 -99.99 -9.99
2019/10/15 10:00 EDT   50.51  50.55    3  205    4  47.5  55.8 1014.5 -9.9 -9.999  84.5 -99.99 -9.99
2019/10/15 10:06 EDT   50.55  50.59    4  214    7  47.7  55.8 1014.6 -9.9 -9.999  83.9 -99.99 -9.99
2019/10/15 10:12 EDT   50.59  50.63    4  218    7  47.8  55.8 1014.6 -9.9 -9.999  84.4 -99.99 -9.99
2019/10/15 10:18 EDT   50.59  50.63    2  212    5  48.0  55.8 1014.6 -9.9 -9.999  84.9 -99.99 -9.99
2019/10/15 10:24 EDT   50.59  50.63    2  197    3  48.2  55.8 1014.5 -9.9 -9.999  85.3 -99.99 -9.99
2019/10/15 10:30 EDT   50.47  50.51    2  209    4  48.4  55.8 1014.6 -9.9 -9.999  85.5 -99.99 -9.99
2019/10/15 10:36 EDT   50.47  50.47    3  190    5  48.2  55.8 1014.4 -9.9 -9.999  84.4 -99.99 -9.99
2019/10/15 10:42 EDT   50.24  50.28    4  216    8  48.2  55.8 1014.5 -9.9 -9.999  81.9 -99.99 -9.99
2019/10/15 10:48 EDT   50.24  50.24    4  210    5  48.0  55.8 1014.4 -9.9 -9.999  81.2 -99.99 -9.99
2019/10/15 10:54 EDT   50.35  50.39    4  217    7  48.2  55.8 1014.3 -9.9 -9.999  80.5 -99.99 -9.99
2019/10/15 11:00 EDT   50.20  50.24    3  211    6  48.4  55.8 1014.2 -9.9 -9.999  80.3 -99.99 -9.99
2019/10/15 11:06 EDT   50.31  50.31    4  196    7  48.4  55.8 1014.2 -9.9 -9.999  79.4 -99.99 -9.99
2019/10/15 11:12 EDT   50.51  50.55    4  204    6  48.6  55.8 1014.3 -9.9 -9.999  76.5 -99.99 -9.99
2019/10/15 11:18 EDT   50.43  50.47    4  212    6  48.6  55.8 1014.2 -9.9 -9.999  75.8 -99.99 -9.99
2019/10/15 11:24 EDT   50.35  50.35    4  200    5  48.7  55.8 1014.3 -9.9 -9.999  76.1 -99.99 -9.99
2019/10/15 11:30 EDT   50.31  50.35    4  200    7  48.7  55.8 1014.2 -9.9 -9.999  76.4 -99.99 -9.99
2019/10/15 11:36 EDT   50.24  50.28    5  205    7  48.7  55.8 1014.3 -9.9 -9.999  75.0 -99.99 -9.99
2019/10/15 11:42 EDT   50.20  50.24    5  198    8  48.7  55.8 1014.4 -9.9 -9.999  74.0 -99.99 -9.99
2019/10/15 11:48 EDT   50.31  50.31    6  194   10  48.7  55.8 1014.3 -9.9 -9.999  73.9 -99.99 -9.99
2019/10/15 11:54 EDT   49.96  50.00    6  188    9  48.6  55.8 1014.4 -9.9 -9.999  75.4 -99.99 -9.99
2019/10/15 12:00 EDT   50.35  50.35    6  191   10  48.4  55.8 1014.4 -9.9 -9.999  74.9 -99.99 -9.99
2019/10/15 12:06 EDT   50.31  50.31    7  189   10  48.6  55.8 1014.4 -9.9 -9.999  76.7 -99.99 -9.99
2019/10/15 12:12 EDT   50.16  50.20    6  200   10  48.2  55.8 1014.4 -9.9 -9.999  74.6 -99.99 -9.99
2019/10/15 12:18 EDT   50.20  50.20    7  196   11  48.0  55.8 1014.3 -9.9 -9.999  77.0 -99.99 -9.99
2019/10/15 12:24 EDT   50.04  50.04    7  194   11  47.8  55.8 1014.2 -9.9 -9.999  80.2 -99.99 -9.99
2019/10/15 12:30 EDT   50.04  50.08    8  191   11  48.0  55.8 1014.2 -9.9 -9.999  79.7 -99.99 -9.99
2019/10/15 12:36 EDT   49.72  49.76   11  182   13  48.2  55.8 1014.0 -9.9 -9.999  78.3 -99.99 -9.99
2019/10/15 12:42 EDT   50.00  50.00   11  181   13  48.0  55.8 1013.9 -9.9 -9.999  79.7 -99.99 -9.99
2019/10/15 12:48 EDT   49.88  49.92   12  180   14  48.2  55.8 1013.9 -9.9 -9.999  76.2 -99.99 -9.99
2019/10/15 12:54 EDT   49.76  49.80   11  185   14  48.4  55.8 1014.0 -9.9 -9.999  74.7 -99.99 -9.99
2019/10/15 13:00 EDT   50.31  50.35   12  182   14  48.2  55.8 1013.9 -9.9 -9.999  76.3 -99.99 -9.99
2019/10/15 13:06 EDT   49.88  49.92   12  181   15  48.2  55.6 1013.7 -9.9 -9.999  72.3 -99.99 -9.99
2019/10/15 13:12 EDT   49.53  49.57    9  181   15  48.2  55.6 1013.6 -9.9 -9.999  76.1 -99.99 -9.99
2019/10/15 13:18 EDT   50.24  50.28   10  183   13  48.0  55.8 1013.5 -9.9 -9.999  74.9 -99.99 -9.99
2019/10/15 13:24 EDT   49.84  49.88    9  171   12  48.0  55.8 1013.3 -9.9 -9.999  72.9 -99.99 -9.99
2019/10/15 13:30 EDT   50.08  50.12    9  163   11  48.2  55.6 1013.3 -9.9 -9.999  73.1 -99.99 -9.99
2019/10/15 13:36 EDT   50.08  50.08    9  162   11  48.6  55.6 1013.5 -9.9 -9.999  70.7 -99.99 -9.99
2019/10/15 13:42 EDT   50.12  50.16    9  175   11  48.2  55.6 1013.4 -9.9 -9.999  69.5 -99.99 -9.99
2019/10/15 13:48 EDT   50.00  50.04   10  165   12  48.2  55.6 1013.4 -9.9 -9.999  69.3 -99.99 -9.99
2019/10/15 13:54 EDT   50.24  50.24   10  172   12  48.4  55.6 1013.5 -9.9 -9.999  70.0 -99.99 -9.99
2019/10/15 14:00 EDT   49.53  49.57    9  171   12  48.4  55.6 1013.6 -9.9 -9.999  69.6 -99.99 -9.99
2019/10/15 14:06 EDT   49.61  49.65   11  173   13  48.4  55.6 1013.4 -9.9 -9.999  70.4 -99.99 -9.99
2019/10/15 14:12 EDT   49.72  49.76   12  173   14  48.0  55.6 1013.3 -9.9 -9.999  73.6 -99.99 -9.99
2019/10/15 14:18 EDT   49.33  49.37   12  172   18  47.3  55.6 1013.2 -9.9 -9.999  70.6 -99.99 -9.99
2019/10/15 14:24 EDT   49.53  49.57   13  184   17  47.1  55.6 1013.0 -9.9 -9.999  74.0 -99.99 -9.99
2019/10/15 14:30 EDT   49.25  49.29   13  182   17  46.8  55.6 1013.0 -9.9 -9.999  72.0 -99.99 -9.99
2019/10/15 14:36 EDT   49.06  49.09   11  179   15  46.4  55.6 1013.0 -9.9 -9.999  70.2 -99.99 -9.99
2019/10/15 14:42 EDT   49.45  49.49    8  174   11  46.8  55.6 1013.0 -9.9 -9.999  72.3 -99.99 -9.99
2019/10/15 14:48 EDT   49.41  49.45   11  176   13  46.2  55.6 1012.9 -9.9 -9.999  76.3 -99.99 -9.99
2019/10/15 14:54 EDT   49.45  49.49   11  171   13  46.0  55.6 1012.9 -9.9 -9.999  73.3 -99.99 -9.99
2019/10/15 15:00 EDT   48.86  48.90   10  172   12  45.9  55.6 1012.9 -9.9 -9.999  78.0 -99.99 -9.99
2019/10/15 15:06 EDT   48.82  48.90    7  158   11  45.7  55.6 1012.7 -9.9 -9.999  79.1 -99.99 -9.99
2019/10/15 15:12 EDT   49.02  49.06    7  148   10  45.9  55.6 1012.6 -9.9 -9.999  82.4 -99.99 -9.99
2019/10/15 15:18 EDT   48.46  48.54    8  143    9  46.2  55.6 1012.5 -9.9 -9.999  87.1 -99.99 -9.99
2019/10/15 15:24 EDT   48.46  48.50    8  142   11  45.5  55.6 1012.5 -9.9 -9.999  85.7 -99.99 -9.99
2019/10/15 15:30 EDT   48.43  48.46    6  132    9  45.5  55.6 1012.4 -9.9 -9.999  86.5 -99.99 -9.99
2019/10/15 15:36 EDT   48.43  48.46    4  125    7  45.5  55.6 1012.4 -9.9 -9.999  85.2 -99.99 -9.99
2019/10/15 15:42 EDT   49.13  49.17    5   96    7  44.6  55.6 1012.4 -9.9 -9.999  89.9 -99.99 -9.99
2019/10/15 15:48 EDT   49.17  49.25    6   90    7  44.4  55.6 1012.3 -9.9 -9.999  90.5 -99.99 -9.99
2019/10/15 15:54 EDT   48.78  48.82    8   88    9  44.4  55.6 1012.1 -9.9 -9.999  91.7 -99.99 -9.99
2019/10/15 16:00 EDT   48.66  48.70    9   90   10  44.4  55.6 1012.0 -9.9 -9.999  90.6 -99.99 -9.99
2019/10/15 16:06 EDT   48.39  48.43    8   82   11  44.4  55.6 1011.9 -9.9 -9.999  91.3 -99.99 -9.99
2019/10/15 16:12 EDT   47.76  47.83    9   80   10  44.4  55.6 1011.7 -9.9 -9.999  91.0 -99.99 -9.99
2019/10/15 16:18 EDT   47.87  47.91   10   79   11  44.2  55.6 1011.5 -9.9 -9.999  90.8 -99.99 -9.99
2019/10/15 16:24 EDT   48.90  48.94   10   76   11  44.2  55.6 1011.4 -9.9 -9.999  91.7 -99.99 -9.99
2019/10/15 16:30 EDT   48.31  48.35   10   69   11  44.4  55.6 1011.3 -9.9 -9.999  93.5 -99.99 -9.99
2019/10/15 16:36 EDT   48.82  48.82   10   67   12  44.4  55.6 1011.2 -9.9 -9.999  93.0 -99.99 -9.99
2019/10/15 16:42 EDT   48.94  48.98   11   70   13  44.2  55.6 1011.1 -9.9 -9.999  92.0 -99.99 -9.99
2019/10/15 16:48 EDT   49.02  49.06   10   74   12  44.2  55.6 1011.2 -9.9 -9.999  92.9 -99.99 -9.99
2019/10/15 16:54 EDT   48.86  48.90   10   83   12  44.4  55.6 1011.2 -9.9 -9.999  91.9 -99.99 -9.99
2019/10/15 17:00 EDT   48.35  48.39   10   83   12  44.2  55.6 1011.2 -9.9 -9.999  92.3 -99.99 -9.99
2019/10/15 17:06 EDT   48.66  48.70   10   76   13  44.4  55.6 1011.2 -9.9 -9.999  93.0 -99.99 -9.99
2019/10/15 17:12 EDT   48.46  48.54   10   75   12  44.1  55.6 1011.2 -9.9 -9.999  91.7 -99.99 -9.99
2019/10/15 17:18 EDT   48.46  48.54    9   85   11  44.6  55.6 1011.2 -9.9 -9.999  92.8 -99.99 -9.99
2019/10/15 17:24 EDT   48.35  48.43   10   91   11  44.1  55.6 1011.1 -9.9 -9.999  93.0 -99.99 -9.99
2019/10/15 17:30 EDT   48.86  48.94    9   89   11  44.1  55.6 1011.1 -9.9 -9.999  92.8 -99.99 -9.99
2019/10/15 17:36 EDT   48.78  48.82    9   83   12  44.4  55.6 1011.0 -9.9 -9.999  93.1 -99.99 -9.99
2019/10/15 17:42 EDT   48.43  48.46    9   75   12  44.4  55.6 1010.8 -9.9 -9.999  93.7 -99.99 -9.99
2019/10/15 17:48 EDT   49.21  49.25   10   70   11  44.6  55.6 1010.6 -9.9 -9.999  93.7 -99.99 -9.99
2019/10/15 17:54 EDT   49.17  49.21    9   64   12  44.8  55.6 1010.6 -9.9 -9.999  93.1 -99.99 -9.99
2019/10/15 18:00 EDT   49.41  49.45    9   62   11  45.0  55.6 1010.5 -9.9 -9.999  92.9 -99.99 -9.99
2019/10/15 18:06 EDT   49.09  49.13    9   65   11  45.0  55.6 1010.4 -9.9 -9.999  91.8 -99.99 -9.99
2019/10/15 18:12 EDT   49.09  49.17    9   66   11  45.1  55.6 1010.4 -9.9 -9.999  92.5 -99.99 -9.99
2019/10/15 18:18 EDT   50.04  50.08    8   64   12  45.1  55.6 1010.3 -9.9 -9.999  91.3 -99.99 -9.99
2019/10/15 18:24 EDT   49.88  49.92    7   70   10  45.7  55.4 1010.4 -9.9 -9.999  91.7 -99.99 -9.99
2019/10/15 18:30 EDT   49.65  49.69    8   79   11  45.5  55.4 1010.3 -9.9 -9.999  91.2 -99.99 -9.99
2019/10/15 18:36 EDT   48.98  49.02    9   84   11  45.5  55.6 1010.1 -9.9 -9.999  91.8 -99.99 -9.99
2019/10/15 18:42 EDT   49.25  49.29   10   86   12  45.5  55.4 1010.1 -9.9 -9.999  91.4 -99.99 -9.99
2019/10/15 18:48 EDT   49.92  49.96    9   81   11  45.3  55.4 1010.1 -9.9 -9.999  92.1 -99.99 -9.99
2019/10/15 18:54 EDT   49.84  49.88    8   80   11  45.3  55.4 1010.2 -9.9 -9.999  92.5 -99.99 -9.99
2019/10/15 19:00 EDT   51.14  51.18    7   74   10  45.5  55.4 1010.5 -9.9 -9.999  90.4 -99.99 -9.99
2019/10/15 19:06 EDT   50.55  50.55    6   68    9  46.0  55.4 1010.6 -9.9 -9.999  89.3 -99.99 -9.99
2019/10/15 19:12 EDT   50.28  50.31    7   62   10  46.0  55.4 1010.5 -9.9 -9.999  88.1 -99.99 -9.99
2019/10/15 19:18 EDT   49.92  49.92    7   73    8  46.0  55.4 1010.4 -9.9 -9.999  89.6 -99.99 -9.99
2019/10/15 19:24 EDT   50.67  50.71    9   70   10  45.9  55.4 1010.2 -9.9 -9.999  89.9 -99.99 -9.99
2019/10/15 19:30 EDT   50.83  50.87    8   83   10  45.9  55.4 1010.2 -9.9 -9.999  91.2 -99.99 -9.99
2019/10/15 19:36 EDT   50.31  50.31   10   83   11  46.0  55.4 1009.9 -9.9 -9.999  92.7 -99.99 -9.99
2019/10/15 19:42 EDT   50.67  50.71   12   76   13  45.9  55.4 1009.7 -9.9 -9.999  95.1 -99.99 -9.99
2019/10/15 19:48 EDT   49.92  49.96   11   90   15  45.7  55.4 1009.5 -9.9 -9.999  96.6 -99.99 -9.99
2019/10/15 19:54 EDT   50.51  50.55   12   88   16  45.9  55.4 1009.2 -9.9 -9.999  97.2 -99.99 -9.99
2019/10/15 20:00 EDT   50.39  50.43   14   85   16  45.9  55.4 1008.9 -9.9 -9.999  97.2 -99.99 -9.99
2019/10/15 20:06 EDT   49.72  49.80   14   93   19  45.9  55.4 1008.7 -9.9 -9.999  98.0 -99.99 -9.99
2019/10/15 20:12 EDT   50.35  50.39   13   98   16  45.9  55.4 1008.4 -9.9 -9.999  97.2 -99.99 -9.99
2019/10/15 20:18 EDT   50.75  50.79   12  107   17  46.0  55.4 1008.3 -9.9 -9.999  97.6 -99.99 -9.99
2019/10/15 20:24 EDT   51.26  51.30   10  104   13  46.0  55.4 1008.3 -9.9 -9.999  97.4 -99.99 -9.99
2019/10/15 20:30 EDT   51.18  51.22   10   97   12  45.9  55.2 1008.4 -9.9 -9.999  97.0 -99.99 -9.99
2019/10/15 20:36 EDT   50.63  50.67    9   97   12  45.9  55.2 1008.3 -9.9 -9.999  98.0 -99.99 -9.99
2019/10/15 20:42 EDT   50.20  50.24   12   86   13  45.9  55.2 1008.0 -9.9 -9.999  97.7 -99.99 -9.99
2019/10/15 20:48 EDT   49.33  49.41   11   81   13  46.2  55.2 1007.8 -9.9 -9.999  98.1 -99.99 -9.99
2019/10/15 20:54 EDT   49.80  49.84   11   82   13  46.0  55.4 1007.8 -9.9 -9.999  98.1 -99.99 -9.99
2019/10/15 21:00 EDT   49.76  49.84   11   72   14  46.0  55.4 1007.7 -9.9 -9.999  98.1 -99.99 -9.99
2019/10/15 21:06 EDT   50.16  50.20   11   77   13  46.2  55.4 1007.9 -9.9 -9.999  97.8 -99.99 -9.99
2019/10/15 21:12 EDT   49.80  49.84   10   78   13  46.4  55.4 1008.0 -9.9 -9.999  98.1 -99.99 -9.99
2019/10/15 21:18 EDT   50.16  50.16   10   80   13  46.0  55.2 1008.0 -9.9 -9.999  98.2 -99.99 -9.99
2019/10/15 21:24 EDT   50.55  50.59    9   85   11  46.0  55.2 1008.1 -9.9 -9.999  98.7 -99.99 -9.99
2019/10/15 21:30 EDT   50.67  50.71    9  100   10  46.2  55.2 1008.1 -9.9 -9.999 100.0 -99.99 -9.99
2019/10/15 21:36 EDT   50.55  50.59    9   94   11  46.0  55.2 1007.8 -9.9 -9.999 100.0 -99.99 -9.99
2019/10/15 21:42 EDT   49.72  49.76   11   93   13  45.9  55.2 1007.4 -9.9 -9.999 100.0 -99.99 -9.99
2019/10/15 21:48 EDT   50.24  50.28   11   92   13  46.0  55.2 1007.3 -9.9 -9.999 100.0 -99.99 -9.99
2019/10/15 21:54 EDT   50.16  50.20   10   96   15  46.2  55.2 1007.2 -9.9 -9.999 100.0 -99.99 -9.99
2019/10/15 22:00 EDT   50.04  50.08   12   86   14  46.2  55.2 1007.2 -9.9 -9.999 100.0 -99.99 -9.99
2019/10/15 22:06 EDT   50.12  50.16   11   88   13  46.4  55.2 1007.2 -9.9 -9.999 100.0 -99.99 -9.99
2019/10/15 22:12 EDT   50.16  50.16   10   98   13  46.4  55.2 1007.5 -9.9 -9.999 100.0 -99.99 -9.99
2019/10/15 22:18 EDT   50.24  50.28    9   93   15  46.8  55.2 1007.3 -9.9 -9.999 100.0 -99.99 -9.99
2019/10/15 22:24 EDT   50.08  50.12   11   93   16  46.6  55.2 1007.1 -9.9 -9.999 100.0 -99.99 -9.99
2019/10/15 22:30 EDT   49.61  49.65   12   96   15  46.6  55.2 1007.0 -9.9 -9.999 100.0 -99.99 -9.99
2019/10/15 22:36 EDT   49.72  49.76   11   94   16  46.8  55.2 1006.8 -9.9 -9.999 100.0 -99.99 -9.99
2019/10/15 22:42 EDT   50.16  50.20   10  101   14  46.8  55.2 1006.8 -9.9 -9.999 100.0 -99.99 -9.99
2019/10/15 22:48 EDT   50.71  50.75   11   96   15  47.1  55.2 1006.7 -9.9 -9.999 100.0 -99.99 -9.99
2019/10/15 22:54 EDT   50.20  50.24   11   97   14  47.1  55.2 1006.6 -9.9 -9.999 100.0 -99.99 -9.99
2019/10/15 23:00 EDT   49.49  49.53   11   88   14  46.9  55.2 1006.5 -9.9 -9.999 100.0 -99.99 -9.99
2019/10/15 23:06 EDT   49.76  49.80   11   88   14  47.1  55.2 1006.4 -9.9 -9.999 100.0 -99.99 -9.99
2019/10/15 23:12 EDT   49.96  49.96   10   87   13  47.5  55.2 1006.3 -9.9 -9.999 100.0 -99.99 -9.99
2019/10/15 23:18 EDT   50.47  50.47   11   93   13  47.3  55.2 1006.2 -9.9 -9.999 100.0 -99.99 -9.99
2019/10/15 23:24 EDT   50.16  50.16   12   92   14  47.3  55.2 1006.1 -9.9 -9.999 100.0 -99.99 -9.99
2019/10/15 23:30 EDT   50.08  50.12   11   88   14  47.5  55.2 1005.8 -9.9 -9.999 100.0 -99.99 -9.99
2019/10/15 23:36 EDT   50.39  50.39   12   89   15  47.3  55.2 1005.8 -9.9 -9.999 100.0 -99.99 -9.99
2019/10/15 23:42 EDT   50.12  50.16   11   88   13  47.5  55.2 1005.6 -9.9 -9.999 100.0 -99.99 -9.99
2019/10/15 23:48 EDT   50.39  50.43   12   86   15  47.5  55.2 1005.5 -9.9 -9.999 100.0 -99.99 -9.99
2019/10/15 23:54 EDT   49.92  49.96   12   80   15  47.7  55.2 1005.5 -9.9 -9.999 100.0 -99.99 -9.99
2019/10/16 00:00 EDT   50.43  50.43   13   85   15  47.7  55.2 1005.5 -9.9 -9.999 100.0 -99.99 -9.99
2019/10/16 00:06 EDT   50.67  50.71   12   91   16  47.7  55.2 1005.6 -9.9 -9.999 100.0 -99.99 -9.99
2019/10/16 00:12 EDT   50.83  50.87   12   89   14  47.7  55.2 1005.3 -9.9 -9.999 100.0 -99.99 -9.99
2019/10/16 00:18 EDT   50.94  50.98   14   83   16  47.8  55.2 1005.1 -9.9 -9.999 100.0 -99.99 -9.99
2019/10/16 00:24 EDT   50.83  50.87   12   81   17  48.0  55.2 1005.0 -9.9 -9.999 100.0 -99.99 -9.99
2019/10/16 00:30 EDT   51.10  51.10   13   80   16  48.0  55.2 1005.0 -9.9 -9.999 100.0 -99.99 -9.99
2019/10/16 00:36 EDT   50.91  50.94   14   74   17  48.0  55.2 1004.9 -9.9 -9.999 100.0 -99.99 -9.99
2019/10/16 00:42 EDT   50.55  50.59   13   75   17  48.2  55.2 1004.7 -9.9 -9.999 100.0 -99.99 -9.99
2019/10/16 00:48 EDT   50.12  50.16   13   82   17  48.2  55.2 1004.7 -9.9 -9.999 100.0 -99.99 -9.99
2019/10/16 00:54 EDT   49.92  49.96   11   70   15  48.4  55.2 1004.5 -9.9 -9.999 100.0 -99.99 -9.99
2019/10/16 01:00 EDT   50.83  50.87   14   67   17  48.6  55.2 1004.4 -9.9 -9.999 100.0 -99.99 -9.99
2019/10/16 01:06 EDT   50.98  51.02   15   68   19  48.7  55.2 1004.3 -9.9 -9.999 100.0 -99.99 -9.99
2019/10/16 01:12 EDT   51.22  51.22   14   71   19  48.7  55.2 1004.3 -9.9 -9.999 100.0 -99.99 -9.99
2019/10/16 01:18 EDT   50.67  50.71   16   77   19  48.7  55.2 1004.2 -9.9 -9.999 100.0 -99.99 -9.99
2019/10/16 01:24 EDT   50.67  50.71   14   75   20  48.7  55.2 1004.1 -9.9 -9.999 100.0 -99.99 -9.99
2019/10/16 01:30 EDT   50.28  50.31   14   71   18  48.7  55.2 1003.9 -9.9 -9.999 100.0 -99.99 -9.99
2019/10/16 01:36 EDT   50.35  50.35   14   70   20  48.7  55.2 1003.8 -9.9 -9.999 100.0 -99.99 -9.99
2019/10/16 01:42 EDT   49.80  49.84   13   69   17  48.9  55.2 1003.7 -9.9 -9.999 100.0 -99.99 -9.99
2019/10/16 01:48 EDT   49.45  49.49   17   71   23  49.1  55.2 1003.7 -9.9 -9.999 100.0 -99.99 -9.99
2019/10/16 01:54 EDT   50.16  50.20   13   65   19  49.3  55.2 1003.5 -9.9 -9.999 100.0 -99.99 -9.99
2019/10/16 02:00 EDT   49.76  49.84   15   58   19  48.7  55.2 1003.5 -9.9 -9.999 100.0 -99.99 -9.99
2019/10/16 02:06 EDT   50.31  50.31   18   63   22  48.7  55.2 1003.6 -9.9 -9.999 100.0 -99.99 -9.99
2019/10/16 02:12 EDT   50.63  50.67   17   64   25  48.6  55.2 1003.6 -9.9 -9.999 100.0 -99.99 -9.99
2019/10/16 02:18 EDT   50.31  50.35   18   65   25  48.4  55.2 1003.5 -9.9 -9.999 100.0 -99.99 -9.99
2019/10/16 02:24 EDT   50.12  50.16   15   65   26  48.4  55.2 1003.6 -9.9 -9.999 100.0 -99.99 -9.99
2019/10/16 02:30 EDT   49.57  49.61   16   64   25  48.2  55.2 1003.5 -9.9 -9.999 100.0 -99.99 -9.99
2019/10/16 02:36 EDT   49.61  49.65   18   66   25  47.8  55.2 1003.2 -9.9 -9.999 100.0 -99.99 -9.99
2019/10/16 02:42 EDT   49.41  49.49   19   65   23  47.8  55.2 1003.0 -9.9 -9.999 100.0 -99.99 -9.99
2019/10/16 02:48 EDT   50.24  50.28   17   67   23  47.5  55.2 1002.8 -9.9 -9.999 100.0 -99.99 -9.99
2019/10/16 02:54 EDT   49.41  49.45   17   65   24  47.3  55.2 1002.8 -9.9 -9.999 100.0 -99.99 -9.99
2019/10/16 03:00 EDT   49.80  49.84   17   61   23  47.5  55.2 1002.9 -9.9 -9.999 100.0 -99.99 -9.99
2019/10/16 03:06 EDT   50.28  50.31   17   60   23  47.5  55.2 1002.8 -9.9 -9.999 100.0 -99.99 -9.99
2019/10/16 03:12 EDT   50.00  50.04   18   54   22  47.3  55.2 1002.8 -9.9 -9.999 100.0 -99.99 -9.99
2019/10/16 03:18 EDT   50.08  50.12   18   59   22  47.3  55.2 1002.6 -9.9 -9.999 100.0 -99.99 -9.99
2019/10/16 03:24 EDT   49.88  49.92   19   59   24  47.5  55.2 1002.6 -9.9 -9.999 100.0 -99.99 -9.99
2019/10/16 03:30 EDT   49.21  49.25   18   61   22  47.3  55.2 1002.4 -9.9 -9.999 100.0 -99.99 -9.99
2019/10/16 03:36 EDT   48.78  48.82   18   58   24  47.3  55.2 1002.1 -9.9 -9.999 100.0 -99.99 -9.99
2019/10/16 03:42 EDT   49.21  49.25   20   60   25  47.1  55.2 1001.9 -9.9 -9.999 100.0 -99.99 -9.99
2019/10/16 03:48 EDT   48.94  48.98   20   59   24  47.5  55.2 1001.9 -9.9 -9.999 100.0 -99.99 -9.99
2019/10/16 03:54 EDT   49.17  49.21   20   58   25  47.3  55.2 1001.8 -9.9 -9.999 100.0 -99.99 -9.99
2019/10/16 04:00 EDT   49.84  49.88   20   58   25  47.3  55.2 1001.7 -9.9 -9.999 100.0 -99.99 -9.99
2019/10/16 04:06 EDT   49.29  49.37   21   55   26  47.1  55.2 1001.7 -9.9 -9.999 100.0 -99.99 -9.99
2019/10/16 04:12 EDT   49.65  49.69   20   62   26  47.1  55.2 1001.8 -9.9 -9.999 100.0 -99.99 -9.99
2019/10/16 04:18 EDT   49.57  49.61   18   58   23  47.3  55.2 1001.8 -9.9 -9.999 100.0 -99.99 -9.99
2019/10/16 04:24 EDT   49.06  49.09   18   54   26  47.1  55.2 1001.6 -9.9 -9.999 100.0 -99.99 -9.99
2019/10/16 04:30 EDT   48.94  48.98   20   55   24  47.1  55.2 1001.6 -9.9 -9.999 100.0 -99.99 -9.99
2019/10/16 04:36 EDT   48.58  48.62   19   57   24  46.9  55.2 1001.8 -9.9 -9.999 100.0 -99.99 -9.99
2019/10/16 04:42 EDT   48.39  48.43   18   55   27  46.9  55.2 1001.8 -9.9 -9.999 100.0 -99.99 -9.99
2019/10/16 04:48 EDT   48.70  48.78   20   52   25  47.1  55.2 1001.7 -9.9 -9.999  99.9 -99.99 -9.99
2019/10/16 04:54 EDT   48.58  48.62   21   56   26  46.9  55.2 1001.5 -9.9 -9.999 100.0 -99.99 -9.99
2019/10/16 05:00 EDT   48.90  48.94   16   57   24  47.1  55.2 1001.6 -9.9 -9.999 100.0 -99.99 -9.99
2019/10/16 05:06 EDT   49.33  49.33   19   55   24  46.9  55.2 1001.6 -9.9 -9.999 100.0 -99.99 -9.99
2019/10/16 05:12 EDT   49.92  49.96   20   50   24  46.8  55.2 1001.5 -9.9 -9.999  99.9 -99.99 -9.99
2019/10/16 05:18 EDT   49.69  49.72   21   51   26  47.1  55.2 1001.4 -9.9 -9.999  99.7 -99.99 -9.99
2019/10/16 05:24 EDT   49.25  49.29   21   52   26  46.9  55.2 1001.4 -9.9 -9.999  99.8 -99.99 -9.99
2019/10/16 05:30 EDT   48.86  48.90   21   52   25  46.9  55.2 1001.3 -9.9 -9.999 100.0 -99.99 -9.99
2019/10/16 05:36 EDT   48.27  48.35   21   53   24  46.9  55.2 1001.2 -9.9 -9.999 100.0 -99.99 -9.99
2019/10/16 05:42 EDT   47.76  47.80   21   49   25  46.9  55.2 1001.2 -9.9 -9.999  99.9 -99.99 -9.99
2019/10/16 05:48 EDT   48.66  48.70   20   52   24  47.1  55.4 1001.2 -9.9 -9.999 100.0 -99.99 -9.99
2019/10/16 05:54 EDT   48.74  48.78   23   47   27  46.8  55.4 1001.2 -9.9 -9.999 100.0 -99.99 -9.99
2019/10/16 06:00 EDT   48.70  48.74   23   45   27  46.8  55.4 1001.1 -9.9 -9.999 100.0 -99.99 -9.99
2019/10/16 06:06 EDT   49.65  49.69   24   47   27  46.6  55.4 1001.2 -9.9 -9.999 100.0 -99.99 -9.99
2019/10/16 06:12 EDT   49.45  49.49   22   49   28  46.6  55.4 1001.2 -9.9 -9.999 100.0 -99.99 -9.99
2019/10/16 06:18 EDT   48.98  49.02   21   46   27  46.6  55.4 1001.2 -9.9 -9.999 100.0 -99.99 -9.99
2019/10/16 06:24 EDT   48.86  48.90   25   51   29  46.4  55.4 1001.2 -9.9 -9.999  99.8 -99.99 -9.99
2019/10/16 06:30 EDT   48.11  48.15   25   55   28  46.4  55.4 1001.2 -9.9 -9.999  99.3 -99.99 -9.99
2019/10/16 06:36 EDT   47.83  47.91   25   53   33  46.4  55.4 1001.2 -9.9 -9.999  99.0 -99.99 -9.99
2019/10/16 06:42 EDT   47.83  47.91   25   55   30  46.4  55.4 1001.2 -9.9 -9.999  98.2 -99.99 -9.99
2019/10/16 06:48 EDT   47.64  47.72   26   52   29  46.4  55.4 1001.2 -9.9 -9.999  98.4 -99.99 -9.99
2019/10/16 06:54 EDT   47.80  47.83   23   48   30  46.6  55.6 1001.2 -9.9 -9.999  98.5 -99.99 -9.99
2019/10/16 07:00 EDT   48.19  48.23   28   47   31  46.2  55.6 1001.2 -9.9 -9.999  96.4 -99.99 -9.99
2019/10/16 07:06 EDT   48.50  48.54   27   50   30  46.4  55.6 1001.2 -9.9 -9.999  96.6 -99.99 -9.99
2019/10/16 07:12 EDT   48.66  48.70   25   49   31  46.2  55.6 1001.2 -9.9 -9.999  96.8 -99.99 -9.99
2019/10/16 07:18 EDT   48.39  48.43   25   48   33  46.2  55.6 1001.2 -9.9 -9.999  97.8 -99.99 -9.99
2019/10/16 07:24 EDT   48.19  48.23   24   41   29  46.2  55.8 1001.0 -9.9 -9.999  98.8 -99.99 -9.99
2019/10/16 07:30 EDT   48.11  48.19   25   41   29  45.5  55.8 1001.0 -9.9 -9.999  99.5 -99.99 -9.99
2019/10/16 07:36 EDT   47.64  47.68   23   43   29  45.9  55.8 1001.2 -9.9 -9.999 100.0 -99.99 -9.99
2019/10/16 07:42 EDT   47.83  47.87   24   42   30  45.5  55.8 1001.1 -9.9 -9.999 100.0 -99.99 -9.99
2019/10/16 07:48 EDT   47.87  47.95   22   40   30  45.9  55.8 1001.1 -9.9 -9.999 100.0 -99.99 -9.99
2019/10/16 07:54 EDT   47.64  47.68   24   39   29  45.3  55.8 1001.1 -9.9 -9.999 100.0 -99.99 -9.99
2019/10/16 08:00 EDT   48.43  48.50   24   32   27  45.1  55.8 1001.2 -9.9 -9.999 100.0 -99.99 -9.99
2019/10/16 08:06 EDT   48.82  48.86   22   40   27  45.3  55.6 1001.1 -9.9 -9.999 100.0 -99.99 -9.99
2019/10/16 08:12 EDT   48.58  48.62   24   28   30  44.6  55.6 1001.0 -9.9 -9.999 100.0 -99.99 -9.99
2019/10/16 08:18 EDT   48.66  48.66   24   27   31  45.0  55.6 1001.1 -9.9 -9.999 100.0 -99.99 -9.99
2019/10/16 08:24 EDT   48.43  48.46   29   20   33  44.6  55.6 1001.0 -9.9 -9.999 100.0 -99.99 -9.99
2019/10/16 08:30 EDT   47.83  47.87   25   23   30  45.0  55.6 1001.2 -9.9 -9.999 100.0 -99.99 -9.99
2019/10/16 08:36 EDT   47.56  47.60   25   23   30  44.8  55.6 1001.2 -9.9 -9.999 100.0 -99.99 -9.99
2019/10/16 08:42 EDT   47.20  47.24   25   25   29  44.6  55.6 1001.2 -9.9 -9.999 100.0 -99.99 -9.99
2019/10/16 08:48 EDT   47.28  47.32   25   27   31  44.4  55.6 1001.3 -9.9 -9.999 100.0 -99.99 -9.99
2019/10/16 08:54 EDT   47.64  47.68   24   22   31  44.6  55.6 1001.4 -9.9 -9.999 100.0 -99.99 -9.99
2019/10/16 09:00 EDT   47.60  47.64   22   25   30  44.4  55.6 1001.3 -9.9 -9.999 100.0 -99.99 -9.99
2019/10/16 09:06 EDT   47.72  47.76   25   21   28  43.9  55.6 1001.5 -9.9 -9.999 100.0 -99.99 -9.99
2019/10/16 09:12 EDT   47.40  47.44   25   26   33  44.1  55.6 1001.6 -9.9 -9.999 100.0 -99.99 -9.99
2019/10/16 09:18 EDT   47.01  47.05   22   25   30  44.6  55.6 1001.6 -9.9 -9.999 100.0 -99.99 -9.99
2019/10/16 09:24 EDT   46.57  46.61   24   26   28  43.7  55.6 1001.8 -9.9 -9.999 100.0 -99.99 -9.99
2019/10/16 09:30 EDT   45.98  46.06   24   22   30  44.4  55.6 1001.6 -9.9 -9.999 100.0 -99.99 -9.99
2019/10/16 09:36 EDT   45.79  45.83   21   27   33  43.9  55.6 1001.8 -9.9 -9.999 100.0 -99.99 -9.99
2019/10/16 09:42 EDT   45.43  45.51   25   25   30  43.2  55.6 1001.7 -9.9 -9.999 100.0 -99.99 -9.99
2019/10/16 09:48 EDT   45.55  45.67   20   28   26  44.1  55.6 1001.8 -9.9 -9.999 100.0 -99.99 -9.99
2019/10/16 09:54 EDT   45.94  46.14   21   29   27  43.9  55.6 1001.8 -9.9 -9.999 100.0 -99.99 -9.99
2019/10/16 10:00 EDT   46.22  46.26   24   24   31  43.5  55.6 1001.8 -9.9 -9.999 100.0 -99.99 -9.99
2019/10/16 10:06 EDT   46.26  46.30   25   22   31  43.7  55.6 1001.7 -9.9 -9.999 100.0 -99.99 -9.99
2019/10/16 10:12 EDT   46.02  46.10   24   15   30  43.2  55.6 1001.7 -9.9 -9.999 100.0 -99.99 -9.99
2019/10/16 10:18 EDT   45.75  45.79   24   18   28  43.0  55.6 1001.6 -9.9 -9.999 100.0 -99.99 -9.99
2019/10/16 10:24 EDT   45.47  45.55   24   12   31  43.0  55.6 1001.7 -9.9 -9.999 100.0 -99.99 -9.99
2019/10/16 10:30 EDT   44.76  44.80   25   18   28  43.2  55.6 1001.9 -9.9 -9.999 100.0 -99.99 -9.99
2019/10/16 10:36 EDT   44.29  44.33   23   16   28  43.3  55.6 1001.7 -9.9 -9.999 100.0 -99.99 -9.99
2019/10/16 10:42 EDT   43.86  43.90   22   16   28  43.5  55.6 1001.8 -9.9 -9.999 100.0 -99.99 -9.99
2019/10/16 10:48 EDT   44.29  44.33   24   11   26  43.3  55.6 1001.7 -9.9 -9.999 100.0 -99.99 -9.99
2019/10/16 10:54 EDT   44.65  44.69   27   18   31  43.2  55.6 1001.9 -9.9 -9.999 100.0 -99.99 -9.99
2019/10/16 11:00 EDT   44.57  44.61   22   14   31  43.5  55.6 1001.8 -9.9 -9.999 100.0 -99.99 -9.99
2019/10/16 11:06 EDT   44.72  44.72   24    6   27  42.8  55.6 1001.7 -9.9 -9.999  99.9 -99.99 -9.99
2019/10/16 11:12 EDT   44.61  44.65   24   10   27  43.2  55.6 1001.8 -9.9 -9.999  99.9 -99.99 -9.99
2019/10/16 11:18 EDT   44.21  44.21   23   10   26  43.2  55.4 1001.8 -9.9 -9.999  99.8 -99.99 -9.99
2019/10/16 11:24 EDT   43.74  43.78   20    6   26  43.2  55.4 1002.0 -9.9 -9.999  99.8 -99.99 -9.99
2019/10/16 11:30 EDT   43.39  43.43   20    6   24  43.2  55.4 1002.0 -9.9 -9.999  99.8 -99.99 -9.99
2019/10/16 11:36 EDT   43.46  43.50   22    6   27  43.0  55.4 1002.0 -9.9 -9.999  98.4 -99.99 -9.99
2019/10/16 11:42 EDT   43.31  43.35   24    7   27  43.0  55.4 1002.0 -9.9 -9.999  98.2 -99.99 -9.99
2019/10/16 11:48 EDT   43.50  43.50   22    6   25  43.0  55.4 1002.1 -9.9 -9.999  98.2 -99.99 -9.99
2019/10/16 11:54 EDT   43.62  43.66   21    5   24  43.0  55.4 1002.1 -9.9 -9.999  97.8 -99.99 -9.99
2019/10/16 12:00 EDT   43.62  43.62   19    4   26  43.3  55.4 1002.2 -9.9 -9.999  98.4 -99.99 -9.99
2019/10/16 12:06 EDT   43.66  43.66   23    3   29  43.2  55.4 1002.2 -9.9 -9.999  96.6 -99.99 -9.99
2019/10/16 12:12 EDT   43.27  43.31   20    7   28  43.7  55.4 1002.2 -9.9 -9.999  97.6 -99.99 -9.99
2019/10/16 12:18 EDT   43.39  43.39   22    3   29  43.5  55.4 1002.2 -9.9 -9.999  97.1 -99.99 -9.99
2019/10/16 12:24 EDT   42.95  42.95   21    2   24  43.3  55.4 1002.3 -9.9 -9.999  96.6 -99.99 -9.99
2019/10/16 12:30 EDT   42.76  42.76   21    6   25  43.2  55.4 1002.2 -9.9 -9.999  96.4 -99.99 -9.99
2019/10/16 12:36 EDT   42.56  42.60   20    6   26  43.3  55.4 1002.3 -9.9 -9.999  96.2 -99.99 -9.99
2019/10/16 12:42 EDT   42.68  42.72   22    6   29  43.3  55.4 1002.4 -9.9 -9.999  96.3 -99.99 -9.99
2019/10/16 12:48 EDT   42.99  43.03   22    1   29  43.2  55.4 1002.4 -9.9 -9.999  95.4 -99.99 -9.99
2019/10/16 12:54 EDT   43.03  43.07   24    3   28  42.8  55.4 1002.4 -9.9 -9.999  93.3 -99.99 -9.99
2019/10/16 13:00 EDT   43.07  43.11   22    2   29  43.0  55.4 1002.4 -9.9 -9.999  94.1 -99.99 -9.99
2019/10/16 13:06 EDT   42.91  42.95   23    6   28  42.8  55.4 1002.5 -9.9 -9.999  93.5 -99.99 -9.99
2019/10/16 13:12 EDT   42.91  42.91   22    0   27  42.8  55.4 1002.4 -9.9 -9.999  94.1 -99.99 -9.99
2019/10/16 13:18 EDT   42.76  42.76   20  359   27  42.6  55.4 1002.5 -9.9 -9.999  94.9 -99.99 -9.99
2019/10/16 13:24 EDT   42.48  42.52   19  358   27  42.8  55.4 1002.5 -9.9 -9.999  95.5 -99.99 -9.99
2019/10/16 13:30 EDT   42.20  42.24   20  360   26  42.6  55.4 1002.6 -9.9 -9.999  95.6 -99.99 -9.99
2019/10/16 13:36 EDT   42.13  42.17   18  353   24  42.4  55.4 1002.6 -9.9 -9.999  95.7 -99.99 -9.99
2019/10/16 13:42 EDT   42.20  42.20   18  348   27  42.3  55.4 1002.7 -9.9 -9.999  95.4 -99.99 -9.99
2019/10/16 13:48 EDT   42.44  42.48   19  356   22  42.4  55.4 1002.7 -9.9 -9.999  96.2 -99.99 -9.99
2019/10/16 13:54 EDT   42.56  42.60   15  346   23  42.1  55.4 1002.7 -9.9 -9.999  97.3 -99.99 -9.99
2019/10/16 14:00 EDT   42.60  42.64   13  344   19  41.9  55.4 1002.7 -9.9 -9.999  98.0 -99.99 -9.99
2019/10/16 14:06 EDT   42.68  42.68   14  340   23  41.7  55.4 1002.8 -9.9 -9.999  98.2 -99.99 -9.99
2019/10/16 14:12 EDT   42.60  42.64   13  344   23  42.1  55.4 1002.9 -9.9 -9.999  99.2 -99.99 -9.99
2019/10/16 14:18 EDT   42.44  42.48   12  343   20  41.9  55.4 1002.9 -9.9 -9.999  99.3 -99.99 -9.99
2019/10/16 14:24 EDT   42.32  42.32   13  341   22  42.1  55.4 1002.9 -9.9 -9.999  98.8 -99.99 -9.99
2019/10/16 14:30 EDT   42.17  42.20   14  345   22  42.3  55.4 1002.9 -9.9 -9.999  98.3 -99.99 -9.99
2019/10/16 14:36 EDT   41.97  42.01   16  346   20  42.4  55.4 1002.9 -9.9 -9.999  97.8 -99.99 -9.99
2019/10/16 14:42 EDT   42.09  42.13   15  345   22  42.3  55.4 1003.0 -9.9 -9.999  97.2 -99.99 -9.99
2019/10/16 14:48 EDT   42.24  42.28   13  341   22  42.3  55.4 1003.0 -9.9 -9.999  97.6 -99.99 -9.99
2019/10/16 14:54 EDT   42.13  42.17   16  341   25  42.3  55.4 1003.0 -9.9 -9.999  96.9 -99.99 -9.99
2019/10/16 15:00 EDT   42.32  42.36   15  339   23  42.1  55.4 1003.1 -9.9 -9.999  91.1 -99.99 -9.99
2019/10/16 15:06 EDT   42.56  42.60   15  338   20  42.3  55.4 1003.1 -9.9 -9.999  96.4 -99.99 -9.99
2019/10/16 15:12 EDT   42.40  42.44   16  340   23  42.4  55.4 1003.1 -9.9 -9.999  96.7 -99.99 -9.99
2019/10/16 15:18 EDT   42.05  42.09   14  340   22  42.4  55.4 1003.2 -9.9 -9.999  96.3 -99.99 -9.99
2019/10/16 15:24 EDT   41.97  42.01   14  344   20  42.4  55.4 1003.3 -9.9 -9.999  96.3 -99.99 -9.99
2019/10/16 15:30 EDT   41.73  41.77   14  342   22  42.4  55.4 1003.4 -9.9 -9.999  95.8 -99.99 -9.99
2019/10/16 15:36 EDT   41.50  41.54   10  343   21  42.4  55.4 1003.5 -9.9 -9.999  96.8 -99.99 -9.99
2019/10/16 15:42 EDT   41.57  41.61   14  339   20  42.4  55.4 1003.6 -9.9 -9.999  96.8 -99.99 -9.99
2019/10/16 15:48 EDT   41.46  41.50   16  343   25  42.6  55.4 1003.7 -9.9 -9.999  95.9 -99.99 -9.99
2019/10/16 15:54 EDT   41.42  41.46   15  339   21  42.4  55.4 1003.8 -9.9 -9.999  96.5 -99.99 -9.99
2019/10/16 16:00 EDT   41.61  41.65   11  339   21  42.3  55.4 1003.9 -9.9 -9.999  97.7 -99.99 -9.99
2019/10/16 16:06 EDT   41.65  41.69   14  341   20  42.4  55.4 1004.0 -9.9 -9.999  97.6 -99.99 -9.99
2019/10/16 16:12 EDT   41.46  41.50   15  342   22  42.6  55.4 1004.0 -9.9 -9.999  97.0 -99.99 -9.99
2019/10/16 16:18 EDT   41.22  41.26   14  342   22  42.4  55.4 1004.1 -9.9 -9.999  97.5 -99.99 -9.99
2019/10/16 16:24 EDT   40.98  41.02   14  344   24  42.6  55.4 1004.1 -9.9 -9.999  97.6 -99.99 -9.99
2019/10/16 16:30 EDT   40.67  40.71   14  346   19  42.6  55.4 1004.2 -9.9 -9.999  96.9 -99.99 -9.99
2019/10/16 16:36 EDT   40.59  40.63   16  341   25  42.6  55.4 1004.3 -9.9 -9.999  95.7 -99.99 -9.99
2019/10/16 16:42 EDT   40.51  40.55   17  341   26  42.4  55.4 1004.3 -9.9 -9.999  95.8 -99.99 -9.99
2019/10/16 16:48 EDT   40.51  40.55   15  340   26  42.3  55.4 1004.4 -9.9 -9.999  97.2 -99.99 -9.99
2019/10/16 16:54 EDT   40.51  40.55   16  346   25  42.3  55.4 1004.5 -9.9 -9.999  97.4 -99.99 -9.99
2019/10/16 17:00 EDT   40.59  40.63   16  341   23  42.1  55.4 1004.6 -9.9 -9.999  97.4 -99.99 -9.99
2019/10/16 17:06 EDT   40.43  40.47   19  345   25  42.4  55.4 1004.6 -9.9 -9.999  95.8 -99.99 -9.99
2019/10/16 17:12 EDT   40.31  40.35   14  342   22  42.4  55.4 1004.7 -9.9 -9.999  96.4 -99.99 -9.99
2019/10/16 17:18 EDT   40.39  40.43   18  343   27  42.6  55.4 1004.7 -9.9 -9.999  94.6 -99.99 -9.99
2019/10/16 17:24 EDT   40.16  40.20   17  340   28  42.4  55.4 1004.8 -9.9 -9.999  94.7 -99.99 -9.99
2019/10/16 17:30 EDT   39.96  40.00   21  348   26  42.4  55.4 1004.8 -9.9 -9.999  94.6 -99.99 -9.99
2019/10/16 17:36 EDT   39.72  39.76   18  342   27  42.4  55.4 1005.0 -9.9 -9.999  95.4 -99.99 -9.99
2019/10/16 17:42 EDT   39.37  39.41   18  346   27  42.6  55.2 1005.1 -9.9 -9.999  95.4 -99.99 -9.99
2019/10/16 17:48 EDT   39.80  39.84   21  343   29  42.6  55.2 1005.1 -9.9 -9.999  94.0 -99.99 -9.99
2019/10/16 17:54 EDT   39.84  39.88   15  339   25  42.6  55.2 1005.3 -9.9 -9.999  95.1 -99.99 -9.99
2019/10/16 18:00 EDT   40.00  40.04   17  346   27  42.6  55.2 1005.3 -9.9 -9.999  93.7 -99.99 -9.99
2019/10/16 18:06 EDT   40.08  40.12   19  347   30  42.6  55.2 1005.3 -9.9 -9.999  92.7 -99.99 -9.99
2019/10/16 18:12 EDT   40.08  40.12   20  345   27  42.8  55.2 1005.4 -9.9 -9.999  92.6 -99.99 -9.99
2019/10/16 18:18 EDT   40.00  40.04   19  345   30  43.0  55.2 1005.6 -9.9 -9.999  91.7 -99.99 -9.99
2019/10/16 18:24 EDT   39.88  39.92   13  336   23  42.8  55.2 1005.7 -9.9 -9.999  93.1 -99.99 -9.99
2019/10/16 18:30 EDT   39.96  40.00   18  349   28  43.0  55.2 1005.7 -9.9 -9.999  91.9 -99.99 -9.99
2019/10/16 18:36 EDT   40.00  40.04   15  337   27  42.6  55.2 1005.9 -9.9 -9.999  92.8 -99.99 -9.99
2019/10/16 18:42 EDT   39.80  39.84   17  342   27  42.4  55.2 1005.9 -9.9 -9.999  92.3 -99.99 -9.99
2019/10/16 18:48 EDT   39.72  39.76   17  346   25  42.4  55.2 1006.0 -9.9 -9.999  93.0 -99.99 -9.99
2019/10/16 18:54 EDT   39.88  39.92   19  342   26  42.3  55.2 1006.0 -9.9 -9.999  92.6 -99.99 -9.99
2019/10/16 19:00 EDT   40.31  40.35   18  339   28  42.1  55.2 1006.1 -9.9 -9.999  91.8 -99.99 -9.99
2019/10/16 19:06 EDT   40.59  40.59   19  342   27  42.1  55.2 1006.1 -9.9 -9.999  92.2 -99.99 -9.99
2019/10/16 19:12 EDT   40.47  40.51   17  341   25  42.1  55.2 1006.2 -9.9 -9.999  92.1 -99.99 -9.99
2019/10/16 19:18 EDT   40.43  40.47   19  345   26  42.3  55.2 1006.3 -9.9 -9.999  91.0 -99.99 -9.99
2019/10/16 19:24 EDT   40.31  40.35   17  349   26  42.4  55.2 1006.4 -9.9 -9.999  92.4 -99.99 -9.99
2019/10/16 19:30 EDT   40.31  40.35   15  346   22  42.4  55.2 1006.5 -9.9 -9.999  90.9 -99.99 -9.99
2019/10/16 19:36 EDT   40.35  40.39   15  342   28  42.6  55.2 1006.5 -9.9 -9.999  89.6 -99.99 -9.99
2019/10/16 19:42 EDT   40.59  40.63   19  343   28  42.6  55.2 1006.7 -9.9 -9.999  87.7 -99.99 -9.99
2019/10/16 19:48 EDT   40.79  40.83   17  345   24  42.6  55.2 1006.8 -9.9 -9.999  86.8 -99.99 -9.99
2019/10/16 19:54 EDT   40.91  40.94   19  345   25  42.6  55.2 1006.9 -9.9 -9.999  86.7 -99.99 -9.99
2019/10/16 20:00 EDT   41.14  41.18   13  338   25  42.6  55.2 1007.0 -9.9 -9.999  86.4 -99.99 -9.99
2019/10/16 20:06 EDT   41.34  41.38   19  343   24  42.8  55.0 1007.2 -9.9 -9.999  84.9 -99.99 -9.99
2019/10/16 20:12 EDT   41.42  41.46   19  344   27  43.0  55.0 1007.2 -9.9 -9.999  83.3 -99.99 -9.99
2019/10/16 20:18 EDT   41.26  41.30   20  346   28  43.0  55.0 1007.3 -9.9 -9.999  82.7 -99.99 -9.99
2019/10/16 20:24 EDT   41.06  41.06   19  342   24  43.0  55.0 1007.3 -9.9 -9.999  81.4 -99.99 -9.99
2019/10/16 20:30 EDT   40.94  41.02   15  343   26  42.8  55.0 1007.4 -9.9 -9.999  82.3 -99.99 -9.99
2019/10/16 20:36 EDT   41.02  41.06   20  346   26  43.2  55.0 1007.4 -9.9 -9.999  81.4 -99.99 -9.99
2019/10/16 20:42 EDT   41.22  41.26   18  346   23  43.2  55.0 1007.4 -9.9 -9.999  81.4 -99.99 -9.99
2019/10/16 20:48 EDT   41.46  41.46   18  345   25  43.2  55.0 1007.5 -9.9 -9.999  80.8 -99.99 -9.99
2019/10/16 20:54 EDT   41.69  41.73   17  341   24  43.2  55.0 1007.6 -9.9 -9.999  80.3 -99.99 -9.99
2019/10/16 21:00 EDT   41.69  41.73   14  344   28  43.2  54.9 1007.7 -9.9 -9.999  80.7 -99.99 -9.99
2019/10/16 21:06 EDT   41.61  41.65   14  337   23  43.0  54.9 1007.7 -9.9 -9.999  80.6 -99.99 -9.99
2019/10/16 21:12 EDT   41.81  41.85   16  342   25  43.2  54.9 1007.8 -9.9 -9.999  79.8 -99.99 -9.99
2019/10/16 21:18 EDT   41.93  41.97   17  343   26  43.0  54.9 1007.8 -9.9 -9.999  79.3 -99.99 -9.99
2019/10/16 21:24 EDT   41.89  41.93   19  346   25  42.8  54.9 1007.9 -9.9 -9.999  79.0 -99.99 -9.99
2019/10/16 21:30 EDT   41.61  41.65   14  341   25  42.8  54.9 1007.9 -9.9 -9.999  81.6 -99.99 -9.99
2019/10/16 21:36 EDT   41.50  41.57   11  334   24  42.6  54.9 1007.9 -9.9 -9.999  82.2 -99.99 -9.99
2019/10/16 21:42 EDT   41.89  41.93   17  345   24  42.8  54.9 1008.1 -9.9 -9.999  80.7 -99.99 -9.99
2019/10/16 21:48 EDT   41.77  41.81   15  336   25  42.4  54.9 1008.1 -9.9 -9.999  81.9 -99.99 -9.99
2019/10/16 21:54 EDT   42.17  42.20   16  342   22  42.3  54.7 1008.2 -9.9 -9.999  81.6 -99.99 -9.99
2019/10/16 22:00 EDT   42.20  42.24   17  337   25  42.3  54.7 1008.2 -9.9 -9.999  80.4 -99.99 -9.99
2019/10/16 22:06 EDT   42.32  42.36   15  340   25  42.3  54.7 1008.2 -9.9 -9.999  80.4 -99.99 -9.99
2019/10/16 22:12 EDT   42.32  42.36   13  339   20  42.3  54.7 1008.3 -9.9 -9.999  81.3 -99.99 -9.99
2019/10/16 22:18 EDT   42.36  42.40   11  333   22  42.3  54.7 1008.3 -9.9 -9.999  81.5 -99.99 -9.99
2019/10/16 22:24 EDT   42.32  42.36   13  347   21  42.3  54.7 1008.4 -9.9 -9.999  81.3 -99.99 -9.99
2019/10/16 22:30 EDT   42.32  42.36   12  341   22  42.1  54.7 1008.4 -9.9 -9.999  80.6 -99.99 -9.99
2019/10/16 22:36 EDT   42.36  42.40   14  340   24  42.1  54.7 1008.4 -9.9 -9.999  80.0 -99.99 -9.99
2019/10/16 22:42 EDT   42.40  42.44   14  337   25  42.1  54.7 1008.5 -9.9 -9.999  81.1 -99.99 -9.99
2019/10/16 22:48 EDT   42.56  42.60    9  333   25  41.9  54.7 1008.6 -9.9 -9.999  81.3 -99.99 -9.99
2019/10/16 22:54 EDT   42.60  42.60   12  337   20  41.9  54.7 1008.7 -9.9 -9.999  81.6 -99.99 -9.99
2019/10/16 23:00 EDT   42.48  42.52   11  334   23  41.7  54.7 1008.7 -9.9 -9.999  82.3 -99.99 -9.99
2019/10/16 23:06 EDT   42.56  42.56   11  335   19  41.7  54.7 1008.7 -9.9 -9.999  82.3 -99.99 -9.99
2019/10/16 23:12 EDT   42.52  42.52   13  334   22  41.9  54.5 1008.6 -9.9 -9.999  81.0 -99.99 -9.99
2019/10/16 23:18 EDT   42.44  42.48   14  334   22  41.7  54.7 1008.7 -9.9 -9.999  81.1 -99.99 -9.99
2019/10/16 23:24 EDT   42.40  42.40   15  340   23  41.7  54.7 1008.7 -9.9 -9.999  80.6 -99.99 -9.99
2019/10/16 23:30 EDT   42.17  42.20   13  340   23  41.9  54.7 1008.8 -9.9 -9.999  80.8 -99.99 -9.99
2019/10/16 23:36 EDT   41.97  42.01   13  346   24  42.1  54.7 1008.8 -9.9 -9.999  81.2 -99.99 -9.99
2019/10/16 23:42 EDT   41.97  42.01   14  336   22  41.9  54.7 1008.9 -9.9 -9.999  81.0 -99.99 -9.99
2019/10/16 23:48 EDT   41.69  41.73   14  335   22  41.7  54.7 1009.0 -9.9 -9.999  80.5 -99.99 -9.99
2019/10/16 23:54 EDT   41.89  41.93   13  334   22  41.7  54.5 1009.1 -9.9 -9.999  80.7 -99.99 -9.99
2019/10/17 00:00 EDT   41.85  41.89   11  340   24  41.9  54.5 1009.1 -9.9 -9.999  81.4 -99.99 -9.99
2019/10/17 00:06 EDT   41.89  41.93   11  338   18  41.7  54.5 1009.1 -9.9 -9.999  80.8 -99.99 -9.99
2019/10/17 00:12 EDT   41.65  41.69   15  335   22  41.9  54.5 1009.0 -9.9 -9.999  80.7 -99.99 -9.99
2019/10/17 00:18 EDT   41.46  41.50   11  332   23  41.9  54.5 1009.1 -9.9 -9.999  81.2 -99.99 -9.99
2019/10/17 00:24 EDT   41.30  41.34    8  339   20  41.9  54.5 1009.1 -9.9 -9.999  81.2 -99.99 -9.99
2019/10/17 00:30 EDT   41.22  41.26   12  341   20  41.7  54.5 1009.1 -9.9 -9.999  80.9 -99.99 -9.99
2019/10/17 00:36 EDT   41.10  41.14   13  336   23  41.5  54.5 1009.0 -9.9 -9.999  80.3 -99.99 -9.99
2019/10/17 00:42 EDT   41.22  41.26   11  339   20  41.4  54.7 1008.9 -9.9 -9.999  81.2 -99.99 -9.99
2019/10/17 00:48 EDT   41.42  41.42   13  341   19  41.4  54.7 1008.9 -9.9 -9.999  81.0 -99.99 -9.99
2019/10/17 00:54 EDT   41.34  41.38   11  333   23  41.4  54.7 1009.0 -9.9 -9.999  80.8 -99.99 -9.99
2019/10/17 01:00 EDT   41.38  41.42   13  335   23  41.4  54.7 1008.9 -9.9 -9.999  80.3 -99.99 -9.99
2019/10/17 01:06 EDT   41.38  41.42   13  332   21  41.2  54.7 1009.0 -9.9 -9.999  80.9 -99.99 -9.99
2019/10/17 01:12 EDT   41.30  41.34   10  342   17  41.4  54.7 1009.0 -9.9 -9.999  82.4 -99.99 -9.99
2019/10/17 01:18 EDT   41.18  41.22   16  340   21  41.4  54.7 1009.0 -9.9 -9.999  79.4 -99.99 -9.99
2019/10/17 01:24 EDT   41.06  41.14   14  338   24  41.2  54.7 1009.0 -9.9 -9.999  79.6 -99.99 -9.99
2019/10/17 01:30 EDT   41.06  41.10   14  339   21  41.2  54.7 1008.9 -9.9 -9.999  80.2 -99.99 -9.99
2019/10/17 01:36 EDT   41.18  41.22   15  346   21  41.2  54.7 1009.0 -9.9 -9.999  81.0 -99.99 -9.99
2019/10/17 01:42 EDT   41.34  41.38   14  338   21  41.2  54.7 1009.0 -9.9 -9.999  80.1 -99.99 -9.99
2019/10/17 01:48 EDT   41.42  41.46   13  340   22  41.0  54.7 1009.0 -9.9 -9.999  80.7 -99.99 -9.99
2019/10/17 01:54 EDT   41.46  41.50   13  336   22  41.0  54.7 1009.0 -9.9 -9.999  81.4 -99.99 -9.99
2019/10/17 02:00 EDT   41.42  41.46   15  341   23  41.2  54.7 1009.1 -9.9 -9.999  80.7 -99.99 -9.99
2019/10/17 02:06 EDT   41.50  41.54   14  342   21  41.2  54.7 1009.1 -9.9 -9.999  81.5 -99.99 -9.99
2019/10/17 02:12 EDT   41.18  41.22   15  343   22  41.0  54.7 1009.1 -9.9 -9.999  80.5 -99.99 -9.99
2019/10/17 02:18 EDT   41.61  41.65   14  340   22  41.0  54.5 1009.2 -9.9 -9.999  81.6 -99.99 -9.99
2019/10/17 02:24 EDT   41.89  41.93   12  347   21  40.8  54.5 1009.1 -9.9 -9.999  82.3 -99.99 -9.99
2019/10/17 02:30 EDT   41.89  41.93   13  342   22  40.8  54.5 1009.1 -9.9 -9.999  83.1 -99.99 -9.99
2019/10/17 02:36 EDT   41.89  41.93   13  348   19  40.6  54.5 1009.1 -9.9 -9.999  83.6 -99.99 -9.99
2019/10/17 02:42 EDT   42.01  42.05   13  346   21  40.5  54.5 1009.1 -9.9 -9.999  83.4 -99.99 -9.99
2019/10/17 02:48 EDT   42.24  42.28   11  341   18  40.3  54.5 1009.2 -9.9 -9.999  83.5 -99.99 -9.99
2019/10/17 02:54 EDT   42.24  42.28   10  336   17  40.3  54.5 1009.2 -9.9 -9.999  83.8 -99.99 -9.99
2019/10/17 03:00 EDT   42.32  42.36   11  339   16  40.1  54.3 1009.2 -9.9 -9.999  83.6 -99.99 -9.99
2019/10/17 03:06 EDT   42.64  42.64   12  341   18  40.3  54.3 1009.2 -9.9 -9.999  81.6 -99.99 -9.99
2019/10/17 03:12 EDT   42.83  42.83   12  342   18  40.5  54.3 1009.2 -9.9 -9.999  82.4 -99.99 -9.99
2019/10/17 03:18 EDT   42.95  42.95   11  342   17  40.5  54.3 1009.2 -9.9 -9.999  83.7 -99.99 -9.99
2019/10/17 03:24 EDT   43.19  43.23   10  336   17  40.5  54.1 1009.2 -9.9 -9.999  83.5 -99.99 -9.99
2019/10/17 03:30 EDT   43.23  43.27   14  340   20  40.6  54.1 1009.2 -9.9 -9.999  82.5 -99.99 -9.99
2019/10/17 03:36 EDT   43.15  43.19   11  342   19  40.5  54.1 1009.3 -9.9 -9.999  84.1 -99.99 -9.99
2019/10/17 03:42 EDT   43.35  43.39   11  334   16  40.3  54.1 1009.3 -9.9 -9.999  83.4 -99.99 -9.99
2019/10/17 03:48 EDT   43.74  43.74   12  339   18  40.3  54.1 1009.3 -9.9 -9.999  83.6 -99.99 -9.99
2019/10/17 03:54 EDT   44.02  44.02   12  345   19  40.5  54.0 1009.3 -9.9 -9.999  83.5 -99.99 -9.99
2019/10/17 04:00 EDT   44.02  44.06   13  343   19  40.3  54.0 1009.3 -9.9 -9.999  83.4 -99.99 -9.99
2019/10/17 04:06 EDT   44.21  44.21   14  338   20  40.3  54.0 1009.4 -9.9 -9.999  83.4 -99.99 -9.99
2019/10/17 04:12 EDT   44.41  44.45   11  336   18  40.1  54.0 1009.4 -9.9 -9.999  83.7 -99.99 -9.99
2019/10/17 04:18 EDT   44.45  44.45   11  343   18  40.3  53.8 1009.5 -9.9 -9.999  83.9 -99.99 -9.99
2019/10/17 04:24 EDT   44.49  44.53   10  342   21  40.3  53.8 1009.5 -9.9 -9.999  84.1 -99.99 -9.99
2019/10/17 04:30 EDT   44.53  44.57   14  336   20  40.3  53.8 1009.6 -9.9 -9.999  82.3 -99.99 -9.99
2019/10/17 04:36 EDT   44.53  44.57   10  333   22  40.1  53.8 1009.7 -9.9 -9.999  83.0 -99.99 -9.99
2019/10/17 04:42 EDT   44.57  44.57    9  329   15  40.1  53.8 1009.8 -9.9 -9.999  83.1 -99.99 -9.99
2019/10/17 04:48 EDT   44.65  44.69   12  339   16  40.1  53.8 1009.8 -9.9 -9.999  82.7 -99.99 -9.99
2019/10/17 04:54 EDT   44.69  44.72   11  334   17  40.1  53.8 1009.7 -9.9 -9.999  83.5 -99.99 -9.99
2019/10/17 05:00 EDT   44.84  44.84   10  337   14  40.1  53.6 1009.8 -9.9 -9.999  83.4 -99.99 -9.99
2019/10/17 05:06 EDT   45.00  45.04    8  327   13  39.9  53.6 1009.9 -9.9 -9.999  84.1 -99.99 -9.99
2019/10/17 05:12 EDT   45.00  45.04    9  335   18  39.9  53.6 1010.0 -9.9 -9.999  85.1 -99.99 -9.99
2019/10/17 05:18 EDT   45.20  45.20   13  339   18  40.1  53.6 1010.1 -9.9 -9.999  83.8 -99.99 -9.99
2019/10/17 05:24 EDT   45.24  45.28    9  338   17  40.1  53.6 1010.2 -9.9 -9.999  83.3 -99.99 -9.99
2019/10/17 05:30 EDT   45.16  45.20   11  345   17  40.1  53.6 1010.3 -9.9 -9.999  83.4 -99.99 -9.99
2019/10/17 05:36 EDT   45.28  45.31   10  342   19  39.9  53.6 1010.3 -9.9 -9.999  83.4 -99.99 -9.99
2019/10/17 05:42 EDT   45.31  45.35    7  339   16  39.7  53.6 1010.3 -9.9 -9.999  84.8 -99.99 -9.99
2019/10/17 05:48 EDT   45.35  45.39    8  336   15  39.6  53.6 1010.3 -9.9 -9.999  84.0 -99.99 -9.99
2019/10/17 05:54 EDT   45.12  45.16    9  329   17  39.6  53.6 1010.4 -9.9 -9.999  83.4 -99.99 -9.99
2019/10/17 06:00 EDT   45.47  45.55    9  333   18  39.6  53.6 1010.4 -9.9 -9.999  83.2 -99.99 -9.99
2019/10/17 06:06 EDT   45.55  45.67   11  338   17  39.7  53.6 1010.4 -9.9 -9.999  83.0 -99.99 -9.99
2019/10/17 06:12 EDT   45.71  45.87   10  338   19  39.6  53.4 1010.4 -9.9 -9.999  83.3 -99.99 -9.99
2019/10/17 06:18 EDT   45.67  45.79   11  340   15  39.6  53.4 1010.4 -9.9 -9.999  83.4 -99.99 -9.99
2019/10/17 06:24 EDT   45.59  45.67    8  340   17  39.6  53.4 1010.5 -9.9 -9.999  83.8 -99.99 -9.99
2019/10/17 06:30 EDT   45.59  45.71   10  343   17  39.6  53.4 1010.5 -9.9 -9.999  83.1 -99.99 -9.99
2019/10/17 06:36 EDT   45.63  45.75    9  338   18  39.6  53.4 1010.6 -9.9 -9.999  83.2 -99.99 -9.99
2019/10/17 06:42 EDT   45.63  45.71    9  330   14  39.6  53.4 1010.6 -9.9 -9.999  82.7 -99.99 -9.99
2019/10/17 06:48 EDT   45.55  45.63   11  338   16  39.6  53.4 1010.6 -9.9 -9.999  82.2 -99.99 -9.99
2019/10/17 06:54 EDT   45.51  45.59    9  331   17  39.6  53.4 1010.6 -9.9 -9.999  83.0 -99.99 -9.99
2019/10/17 07:00 EDT   45.55  45.63    9  338   17  39.7  53.4 1010.6 -9.9 -9.999  83.3 -99.99 -9.99
2019/10/17 07:06 EDT   45.59  45.67   11  342   18  39.7  53.4 1010.7 -9.9 -9.999  82.8 -99.99 -9.99
2019/10/17 07:12 EDT   45.63  45.75   15  344   18  39.9  53.4 1010.8 -9.9 -9.999  82.4 -99.99 -9.99
2019/10/17 07:18 EDT   45.63  45.75   15  343   19  39.9  53.4 1010.9 -9.9 -9.999  81.6 -99.99 -9.99
2019/10/17 07:24 EDT   45.51  45.59   11  338   17  39.7  53.4 1011.0 -9.9 -9.999  82.4 -99.99 -9.99
2019/10/17 07:30 EDT   45.35  45.39   13  343   20  39.7  53.4 1011.0 -9.9 -9.999  81.3 -99.99 -9.99
2019/10/17 07:36 EDT   45.31  45.35   12  344   18  39.9  53.4 1011.0 -9.9 -9.999  82.1 -99.99 -9.99
2019/10/17 07:42 EDT   45.39  45.43   15  341   19  39.9  53.4 1011.0 -9.9 -9.999  82.0 -99.99 -9.99
2019/10/17 07:48 EDT   45.35  45.39   11  338   20  39.7  53.6 1011.1 -9.9 -9.999  82.2 -99.99 -9.99
2019/10/17 07:54 EDT   45.39  45.47   12  339   18  39.7  53.6 1011.0 -9.9 -9.999  82.2 -99.99 -9.99
2019/10/17 08:00 EDT   45.43  45.51   13  342   19  39.7  53.6 1011.1 -9.9 -9.999  82.9 -99.99 -9.99
2019/10/17 08:06 EDT   45.35  45.39   14  339   19  39.6  53.6 1011.1 -9.9 -9.999  82.0 -99.99 -9.99
2019/10/17 08:12 EDT   45.31  45.35    8  328   17  39.6  53.6 1011.2 -9.9 -9.999  83.0 -99.99 -9.99
2019/10/17 08:18 EDT   45.35  45.39   10  340   16  39.7  53.6 1011.2 -9.9 -9.999  82.2 -99.99 -9.99
2019/10/17 08:24 EDT   45.24  45.28   10  340   17  39.7  53.6 1011.3 -9.9 -9.999  81.9 -99.99 -9.99
2019/10/17 08:30 EDT   45.39  45.47   14  340   18  40.1  53.6 1011.3 -9.9 -9.999  80.1 -99.99 -9.99
2019/10/17 08:36 EDT   45.47  45.55    9  340   16  40.1  53.6 1011.5 -9.9 -9.999  81.0 -99.99 -9.99
2019/10/17 08:42 EDT   45.55  45.63   10  340   16  40.3  53.6 1011.5 -9.9 -9.999  80.4 -99.99 -9.99
2019/10/17 08:48 EDT   45.71  45.87   11  335   17  40.3  53.6 1011.6 -9.9 -9.999  79.3 -99.99 -9.99
2019/10/17 08:54 EDT   45.79  45.94   11  336   16  40.5  53.6 1011.7 -9.9 -9.999  80.3 -99.99 -9.99
2019/10/17 09:00 EDT   45.59  45.67   11  339   17  40.5  53.6 1011.7 -9.9 -9.999  79.1 -99.99 -9.99
2019/10/17 09:06 EDT   45.83  46.02   11  340   17  40.6  53.6 1011.9 -9.9 -9.999  79.0 -99.99 -9.99
2019/10/17 09:12 EDT   45.87  46.02   13  348   17  40.8  53.6 1011.9 -9.9 -9.999  79.9 -99.99 -9.99
2019/10/17 09:18 EDT   45.87  46.06   12  337   17  40.6  53.6 1011.9 -9.9 -9.999  79.6 -99.99 -9.99
2019/10/17 09:24 EDT   45.94  46.18   11  335   16  40.8  53.6 1011.8 -9.9 -9.999  79.8 -99.99 -9.99
2019/10/17 09:30 EDT   46.18  46.50   10  335   15  40.8  53.6 1011.8 -9.9 -9.999  79.4 -99.99 -9.99
2019/10/17 09:36 EDT   46.50  46.54   11  346   18  40.8  53.6 1011.9 -9.9 -9.999  80.3 -99.99 -9.99
2019/10/17 09:42 EDT   46.65  46.69   13  339   19  40.6  53.4 1011.9 -9.9 -9.999  78.9 -99.99 -9.99
2019/10/17 09:48 EDT   46.73  46.77   14  349   18  40.8  53.4 1012.0 -9.9 -9.999  79.3 -99.99 -9.99
2019/10/17 09:54 EDT   46.50  46.54   13  353   17  41.0  53.4 1012.1 -9.9 -9.999  80.8 -99.99 -9.99
2019/10/17 10:00 EDT   46.77  46.81   11  341   17  41.0  53.4 1012.2 -9.9 -9.999  79.4 -99.99 -9.99
2019/10/17 10:06 EDT   46.97  47.05   12  340   17  40.8  53.4 1012.2 -9.9 -9.999  78.7 -99.99 -9.99
2019/10/17 10:12 EDT   47.01  47.05   12  345   17  40.8  53.4 1012.2 -9.9 -9.999  78.6 -99.99 -9.99
2019/10/17 10:18 EDT   47.09  47.13   12  347   17  40.8  53.4 1012.3 -9.9 -9.999  77.9 -99.99 -9.99
2019/10/17 10:24 EDT   47.32  47.32   14  349   17  41.0  53.4 1012.2 -9.9 -9.999  78.8 -99.99 -9.99
2019/10/17 10:30 EDT   47.28  47.32   14  339   19  40.8  53.4 1012.2 -9.9 -9.999  77.2 -99.99 -9.99
2019/10/17 10:36 EDT   47.28  47.32   12  340   19  41.0  53.4 1012.3 -9.9 -9.999  77.5 -99.99 -9.99
2019/10/17 10:42 EDT   47.36  47.36   12  355   19  41.5  53.2 1012.3 -9.9 -9.999  79.1 -99.99 -9.99
2019/10/17 10:48 EDT   47.48  47.56   14  354   18  41.4  53.2 1012.3 -9.9 -9.999  77.4 -99.99 -9.99
2019/10/17 10:54 EDT   47.44  47.52   13  351   18  41.5  53.2 1012.4 -9.9 -9.999  76.5 -99.99 -9.99
2019/10/17 11:00 EDT   47.52  47.56   13  350   17  41.9  53.2 1012.4 -9.9 -9.999  75.5 -99.99 -9.99
2019/10/17 11:06 EDT   47.60  47.64   11  350   13  41.7  53.2 1012.4 -9.9 -9.999  75.5 -99.99 -9.99
2019/10/17 11:12 EDT   47.52  47.60   14  350   18  41.9  53.2 1012.4 -9.9 -9.999  76.4 -99.99 -9.99
2019/10/17 11:18 EDT   47.64  47.68   12  341   19  42.1  53.2 1012.4 -9.9 -9.999  75.3 -99.99 -9.99
2019/10/17 11:24 EDT   47.60  47.64   13  341   19  41.9  53.2 1012.4 -9.9 -9.999  74.1 -99.99 -9.99
2019/10/17 11:30 EDT   47.56  47.60   11  355   17  42.4  53.2 1012.3 -9.9 -9.999  76.3 -99.99 -9.99
2019/10/17 11:36 EDT   47.28  47.32   13  353   17  42.3  53.2 1012.3 -9.9 -9.999  74.5 -99.99 -9.99
2019/10/17 11:42 EDT   47.09  47.13    9  332   16  43.2  53.2 1012.3 -9.9 -9.999  75.2 -99.99 -9.99
2019/10/17 11:48 EDT   47.28  47.32    9  342   16  43.2  53.2 1012.3 -9.9 -9.999  75.0 -99.99 -9.99
2019/10/17 11:54 EDT   47.05  47.09   14  332   18  42.6  53.2 1012.2 -9.9 -9.999  72.9 -99.99 -9.99
2019/10/17 12:00 EDT   47.32  47.36   10  334   20  43.2  53.2 1012.2 -9.9 -9.999  74.0 -99.99 -9.99
2019/10/17 12:06 EDT   47.52  47.56   12  339   16  43.2  53.2 1012.2 -9.9 -9.999  74.0 -99.99 -9.99
2019/10/17 12:12 EDT  -99.99 -99.99 -999 -999 -999 -99.9 -99.9 -999.9 -9.9 -9.999 -99.9 -99.99 -9.99